DAL38 ZSPD-KLAX
Flight info
| Callsign | DAL38 |
|---|---|
| Flight time | N/A |
| Altitude | 35000 |
| Route | LAM94D LAMEN A593 SADLI Y590 BEDAR Y591 FUE Y23 KASTE Y81 TASOT Y57 POROT Y809 IDLAN Y812 ADNAP OTR5 KALNA 43N160E 44N170E 44N180E 43N170W 43N160W 42N150W 41N140W 39N130W DACEM PAINT PIRAT TILLT DIRBY2 |
| Aircraft | A359/H-V/N |
Departure
| Time | 2026-04-30 05:24 |
|---|---|
| Airport | Shanghai Pudong International Airport (ZSPD) |
Arrival
| Time | N/A |
|---|---|
| Airport | Los Angeles International Airport (KLAX) |
| Time | Latitude | Longitude | Altitude | Speed | Heading |
|---|---|---|---|---|---|
| 2026-04-30 04:58 | 31.14871 | 121.79747 | 29 ft | 0 kts | 72° |
| 2026-04-30 05:08 | 31.14868 | 121.79735 | 28 ft | 3 kts | 72° |
| 2026-04-30 05:08 | 31.14862 | 121.79713 | 28 ft | 3 kts | 72° |
| 2026-04-30 05:09 | 31.14856 | 121.79690 | 26 ft | 3 kts | 72° |
| 2026-04-30 05:09 | 31.14851 | 121.79672 | 27 ft | 3 kts | 79° |
| 2026-04-30 05:09 | 31.14850 | 121.79650 | 26 ft | 3 kts | 109° |
| 2026-04-30 05:09 | 31.14859 | 121.79633 | 25 ft | 3 kts | 149° |
| 2026-04-30 05:10 | 31.14877 | 121.79624 | 26 ft | 3 kts | 167° |
| 2026-04-30 05:10 | 31.14894 | 121.79619 | 28 ft | 1 kts | 162° |
| 2026-04-30 05:10 | 31.14899 | 121.79617 | 28 ft | 0 kts | 162° |
| 2026-04-30 05:13 | 31.14893 | 121.79619 | 28 ft | 4 kts | 162° |
| 2026-04-30 05:13 | 31.14842 | 121.79639 | 26 ft | 9 kts | 161° |
| 2026-04-30 05:13 | 31.14776 | 121.79665 | 29 ft | 11 kts | 161° |
| 2026-04-30 05:13 | 31.14701 | 121.79694 | 29 ft | 12 kts | 161° |
| 2026-04-30 05:14 | 31.14612 | 121.79726 | 29 ft | 15 kts | 162° |
| 2026-04-30 05:14 | 31.14507 | 121.79765 | 29 ft | 17 kts | 162° |
| 2026-04-30 05:14 | 31.14389 | 121.79810 | 29 ft | 19 kts | 161° |
| 2026-04-30 05:14 | 31.14261 | 121.79860 | 29 ft | 20 kts | 161° |
| 2026-04-30 05:15 | 31.14192 | 121.79911 | 29 ft | 9 kts | 105° |
| 2026-04-30 05:15 | 31.14208 | 121.79986 | 29 ft | 11 kts | 71° |
| 2026-04-30 05:15 | 31.14234 | 121.80078 | 29 ft | 13 kts | 72° |
| 2026-04-30 05:15 | 31.14264 | 121.80189 | 29 ft | 16 kts | 73° |
| 2026-04-30 05:16 | 31.14299 | 121.80318 | 29 ft | 18 kts | 71° |
| 2026-04-30 05:16 | 31.14340 | 121.80461 | 29 ft | 20 kts | 71° |
| 2026-04-30 05:16 | 31.14385 | 121.80623 | 29 ft | 22 kts | 73° |
| 2026-04-30 05:16 | 31.14433 | 121.80797 | 29 ft | 23 kts | 71° |
| 2026-04-30 05:17 | 31.14482 | 121.80972 | 29 ft | 21 kts | 72° |
| 2026-04-30 05:17 | 31.14524 | 121.81123 | 29 ft | 18 kts | 72° |
| 2026-04-30 05:17 | 31.14558 | 121.81244 | 29 ft | 15 kts | 72° |
| 2026-04-30 05:17 | 31.14567 | 121.81325 | 29 ft | 9 kts | 109° |
| 2026-04-30 05:18 | 31.14512 | 121.81363 | 29 ft | 11 kts | 161° |
| 2026-04-30 05:18 | 31.14426 | 121.81396 | 29 ft | 15 kts | 162° |
| 2026-04-30 05:18 | 31.14314 | 121.81438 | 29 ft | 19 kts | 162° |
| 2026-04-30 05:18 | 31.14184 | 121.81487 | 29 ft | 20 kts | 162° |
| 2026-04-30 05:19 | 31.14050 | 121.81539 | 29 ft | 21 kts | 161° |
| 2026-04-30 05:19 | 31.13912 | 121.81589 | 29 ft | 21 kts | 163° |
| 2026-04-30 05:19 | 31.13771 | 121.81641 | 29 ft | 21 kts | 162° |
| 2026-04-30 05:19 | 31.13628 | 121.81696 | 29 ft | 22 kts | 162° |
| 2026-04-30 05:20 | 31.13482 | 121.81751 | 28 ft | 22 kts | 162° |
| 2026-04-30 05:20 | 31.13333 | 121.81808 | 28 ft | 23 kts | 162° |
| 2026-04-30 05:20 | 31.13182 | 121.81865 | 28 ft | 23 kts | 162° |
| 2026-04-30 05:20 | 31.13029 | 121.81922 | 29 ft | 23 kts | 162° |
| 2026-04-30 05:21 | 31.12891 | 121.81975 | 29 ft | 19 kts | 161° |
| 2026-04-30 05:21 | 31.12760 | 121.82025 | 29 ft | 20 kts | 161° |
| 2026-04-30 05:21 | 31.12644 | 121.82068 | 29 ft | 14 kts | 162° |
| 2026-04-30 05:21 | 31.12582 | 121.82129 | 29 ft | 12 kts | 94° |
| 2026-04-30 05:22 | 31.12604 | 121.82220 | 29 ft | 12 kts | 72° |
| 2026-04-30 05:22 | 31.12630 | 121.82315 | 29 ft | 13 kts | 72° |
| 2026-04-30 05:22 | 31.12667 | 121.82390 | 28 ft | 10 kts | 23° |
| 2026-04-30 05:22 | 31.12734 | 121.82375 | 27 ft | 11 kts | 342° |
| 2026-04-30 05:23 | 31.12914 | 121.82306 | 29 ft | 54 kts | 341° |
| 2026-04-30 05:23 | 31.13453 | 121.82104 | 27 ft | 107 kts | 341° |
| 2026-04-30 05:23 | 31.14313 | 121.81776 | 32 ft | 152 kts | 343° |
| 2026-04-30 05:23 | 31.15335 | 121.81386 | 526 ft | 151 kts | 343° |
| 2026-04-30 05:24 | 31.16334 | 121.81012 | 1105 ft | 153 kts | 342° |
| 2026-04-30 05:24 | 31.17412 | 121.80921 | 1556 ft | 159 kts | 8° |
| 2026-04-30 05:24 | 31.18490 | 121.81336 | 1924 ft | 171 kts | 17° |
| 2026-04-30 05:24 | 31.19676 | 121.81750 | 2203 ft | 185 kts | 11° |
| 2026-04-30 05:25 | 31.20993 | 121.82052 | 2477 ft | 201 kts | 8° |
| 2026-04-30 05:25 | 31.22438 | 121.82317 | 2721 ft | 220 kts | 7° |
| 2026-04-30 05:25 | 31.24028 | 121.82562 | 2928 ft | 241 kts | 6° |
| 2026-04-30 05:25 | 31.25742 | 121.82814 | 3296 ft | 255 kts | 5° |
| 2026-04-30 05:26 | 31.27525 | 121.83090 | 3865 ft | 260 kts | 7° |
| 2026-04-30 05:26 | 31.29287 | 121.83386 | 4567 ft | 258 kts | 6° |
| 2026-04-30 05:26 | 31.31067 | 121.83691 | 5225 ft | 260 kts | 7° |
| 2026-04-30 05:26 | 31.32868 | 121.84004 | 5848 ft | 262 kts | 6° |
| 2026-04-30 05:27 | 31.34656 | 121.84451 | 6524 ft | 266 kts | 17° |
| 2026-04-30 05:27 | 31.36256 | 121.85574 | 7096 ft | 276 kts | 41° |
| 2026-04-30 05:27 | 31.37316 | 121.87479 | 7630 ft | 287 kts | 68° |
| 2026-04-30 05:27 | 31.37815 | 121.89773 | 8225 ft | 294 kts | 76° |
| 2026-04-30 05:28 | 31.38184 | 121.92156 | 8798 ft | 301 kts | 79° |
| 2026-04-30 05:28 | 31.38129 | 121.94629 | 9338 ft | 310 kts | 103° |
| 2026-04-30 05:28 | 31.37167 | 121.96882 | 9914 ft | 313 kts | 133° |
| 2026-04-30 05:28 | 31.35432 | 121.98399 | 10296 ft | 316 kts | 160° |
| 2026-04-30 05:29 | 31.33317 | 121.99280 | 10572 ft | 329 kts | 167° |
| 2026-04-30 05:29 | 31.31074 | 122.00065 | 10842 ft | 344 kts | 167° |
| 2026-04-30 05:29 | 31.28758 | 122.00884 | 11106 ft | 359 kts | 167° |
| 2026-04-30 05:29 | 31.26331 | 122.01764 | 11447 ft | 370 kts | 167° |
| 2026-04-30 05:30 | 31.23860 | 122.02675 | 11994 ft | 373 kts | 167° |
| 2026-04-30 05:30 | 31.21380 | 122.03595 | 12628 ft | 375 kts | 167° |
| 2026-04-30 05:30 | 31.18881 | 122.04525 | 13258 ft | 376 kts | 168° |
| 2026-04-30 05:30 | 31.16385 | 122.05462 | 13876 ft | 378 kts | 167° |
| 2026-04-30 05:31 | 31.13966 | 122.06764 | 14361 ft | 391 kts | 153° |
| 2026-04-30 05:31 | 31.11891 | 122.08892 | 14808 ft | 404 kts | 138° |
| 2026-04-30 05:31 | 31.10020 | 122.11379 | 15261 ft | 410 kts | 136° |
| 2026-04-30 05:31 | 31.08188 | 122.13892 | 15735 ft | 413 kts | 136° |
| 2026-04-30 05:32 | 31.06313 | 122.16452 | 16201 ft | 416 kts | 136° |
| 2026-04-30 05:32 | 31.04416 | 122.19025 | 16698 ft | 419 kts | 137° |
| 2026-04-30 05:32 | 31.02504 | 122.21620 | 17184 ft | 424 kts | 136° |
| 2026-04-30 05:32 | 31.00848 | 122.24510 | 17633 ft | 438 kts | 120° |
| 2026-04-30 05:33 | 30.99963 | 122.27952 | 18071 ft | 452 kts | 101° |
| 2026-04-30 05:33 | 30.99797 | 122.31656 | 18508 ft | 459 kts | 91° |
| 2026-04-30 05:33 | 31.00112 | 122.35384 | 18883 ft | 465 kts | 83° |
| 2026-04-30 05:33 | 31.00693 | 122.39060 | 19296 ft | 468 kts | 79° |
| 2026-04-30 05:34 | 31.01443 | 122.42776 | 19678 ft | 473 kts | 77° |
| 2026-04-30 05:34 | 31.02291 | 122.46500 | 20055 ft | 477 kts | 76° |
| 2026-04-30 05:34 | 31.03185 | 122.50239 | 20475 ft | 481 kts | 75° |
| 2026-04-30 05:34 | 31.04096 | 122.54012 | 20835 ft | 486 kts | 75° |
| 2026-04-30 05:35 | 31.05006 | 122.57819 | 21231 ft | 489 kts | 76° |
| 2026-04-30 05:35 | 31.05915 | 122.61671 | 21629 ft | 493 kts | 76° |
| 2026-04-30 05:35 | 31.06817 | 122.65540 | 22029 ft | 496 kts | 77° |
| 2026-04-30 05:35 | 31.07719 | 122.69449 | 22414 ft | 500 kts | 77° |
| 2026-04-30 05:36 | 31.08624 | 122.73389 | 22794 ft | 504 kts | 77° |
| 2026-04-30 05:36 | 31.09531 | 122.77354 | 23183 ft | 508 kts | 77° |
| 2026-04-30 05:36 | 31.10445 | 122.81357 | 23567 ft | 512 kts | 77° |
| 2026-04-30 05:36 | 31.11366 | 122.85393 | 23903 ft | 516 kts | 77° |
| 2026-04-30 05:37 | 31.12281 | 122.89403 | 24204 ft | 519 kts | 77° |
| 2026-04-30 05:37 | 31.13212 | 122.93491 | 24531 ft | 523 kts | 77° |
| 2026-04-30 05:37 | 31.14148 | 122.97605 | 24890 ft | 526 kts | 77° |
| 2026-04-30 05:37 | 31.15089 | 123.01744 | 25244 ft | 529 kts | 77° |
| 2026-04-30 05:38 | 31.16032 | 123.05904 | 25596 ft | 532 kts | 77° |
| 2026-04-30 05:38 | 31.16979 | 123.10085 | 25927 ft | 535 kts | 77° |
| 2026-04-30 05:38 | 31.17933 | 123.14307 | 26248 ft | 538 kts | 77° |
| 2026-04-30 05:38 | 31.18888 | 123.18540 | 26519 ft | 542 kts | 77° |
| 2026-04-30 05:39 | 31.19850 | 123.22811 | 26800 ft | 545 kts | 77° |
| 2026-04-30 05:39 | 31.20818 | 123.27116 | 27116 ft | 548 kts | 77° |
| 2026-04-30 05:39 | 31.21778 | 123.31391 | 27423 ft | 551 kts | 77° |
| 2026-04-30 05:39 | 31.22751 | 123.35732 | 27744 ft | 554 kts | 77° |
| 2026-04-30 05:40 | 31.23730 | 123.40104 | 28033 ft | 557 kts | 77° |
| 2026-04-30 05:40 | 31.24712 | 123.44501 | 28439 ft | 558 kts | 77° |
| 2026-04-30 05:40 | 31.25693 | 123.48898 | 28798 ft | 560 kts | 77° |
| 2026-04-30 05:40 | 31.26677 | 123.53320 | 29043 ft | 563 kts | 77° |
| 2026-04-30 05:41 | 31.28639 | 123.62153 | 29084 ft | 564 kts | 77° |
| 2026-04-30 05:41 | 31.30606 | 123.71040 | 29079 ft | 565 kts | 78° |
| 2026-04-30 05:42 | 31.32572 | 123.79957 | 29089 ft | 567 kts | 78° |
| 2026-04-30 05:42 | 31.34537 | 123.88904 | 29427 ft | 567 kts | 78° |
| 2026-04-30 05:43 | 31.35515 | 123.93364 | 29993 ft | 565 kts | 78° |
| 2026-04-30 05:43 | 31.36491 | 123.97830 | 30132 ft | 569 kts | 78° |
| 2026-04-30 05:43 | 31.38464 | 124.06891 | 30450 ft | 577 kts | 78° |
| 2026-04-30 05:44 | 31.39454 | 124.11442 | 30670 ft | 579 kts | 78° |
| 2026-04-30 05:44 | 31.40450 | 124.16030 | 30880 ft | 582 kts | 78° |
| 2026-04-30 05:44 | 31.41447 | 124.20629 | 31083 ft | 584 kts | 78° |
| 2026-04-30 05:44 | 31.42447 | 124.25255 | 31152 ft | 589 kts | 78° |
| 2026-04-30 05:45 | 31.43440 | 124.29856 | 31293 ft | 592 kts | 79° |
| 2026-04-30 05:45 | 31.44450 | 124.34542 | 31567 ft | 592 kts | 79° |
| 2026-04-30 05:45 | 31.45458 | 124.39224 | 31879 ft | 591 kts | 79° |
| 2026-04-30 05:45 | 31.46460 | 124.43887 | 32154 ft | 591 kts | 79° |
| 2026-04-30 05:46 | 31.47462 | 124.48563 | 32364 ft | 591 kts | 79° |
| 2026-04-30 05:46 | 31.48463 | 124.53246 | 32541 ft | 593 kts | 79° |
| 2026-04-30 05:46 | 31.49464 | 124.57934 | 32782 ft | 594 kts | 79° |
| 2026-04-30 05:46 | 31.50452 | 124.62574 | 33064 ft | 593 kts | 80° |
| 2026-04-30 05:47 | 31.51449 | 124.67263 | 33320 ft | 593 kts | 80° |
| 2026-04-30 05:47 | 31.52446 | 124.71956 | 33560 ft | 593 kts | 80° |
| 2026-04-30 05:47 | 31.53438 | 124.76642 | 33833 ft | 592 kts | 81° |
| 2026-04-30 05:47 | 31.54428 | 124.81315 | 34131 ft | 590 kts | 81° |
| 2026-04-30 05:48 | 31.55414 | 124.85992 | 34332 ft | 591 kts | 81° |
| 2026-04-30 05:48 | 31.56399 | 124.90671 | 34499 ft | 591 kts | 81° |
| 2026-04-30 05:48 | 31.57382 | 124.95353 | 34647 ft | 592 kts | 81° |
| 2026-04-30 05:48 | 31.58366 | 125.00044 | 34757 ft | 592 kts | 81° |
| 2026-04-30 05:49 | 31.59348 | 125.04738 | 34940 ft | 592 kts | 81° |
| 2026-04-30 05:49 | 31.60330 | 125.09438 | 35035 ft | 594 kts | 81° |
| 2026-04-30 05:49 | 31.62299 | 125.18899 | 35091 ft | 600 kts | 81° |
| 2026-04-30 05:50 | 31.64277 | 125.28440 | 35034 ft | 606 kts | 81° |
| 2026-04-30 05:50 | 31.66264 | 125.38045 | 35038 ft | 605 kts | 81° |
| 2026-04-30 05:51 | 31.68243 | 125.47651 | 35032 ft | 605 kts | 81° |
| 2026-04-30 05:51 | 31.69895 | 125.55703 | 35021 ft | 605 kts | 81° |
| 2026-04-30 05:52 | 31.71847 | 125.65257 | 35043 ft | 605 kts | 81° |
| 2026-04-30 05:52 | 31.73881 | 125.74861 | 35029 ft | 606 kts | 79° |
| 2026-04-30 05:53 | 31.76040 | 125.84449 | 35017 ft | 606 kts | 79° |
| 2026-04-30 05:53 | 31.78194 | 125.94035 | 35019 ft | 606 kts | 79° |
| 2026-04-30 05:54 | 31.80312 | 126.03624 | 35057 ft | 606 kts | 80° |
| 2026-04-30 05:54 | 31.82386 | 126.13157 | 34998 ft | 605 kts | 80° |
| 2026-04-30 05:55 | 31.84474 | 126.22802 | 35013 ft | 605 kts | 80° |
| 2026-04-30 05:55 | 31.86533 | 126.32332 | 35001 ft | 605 kts | 80° |
| 2026-04-30 05:56 | 31.88604 | 126.41942 | 34998 ft | 605 kts | 80° |
| 2026-04-30 05:56 | 31.90670 | 126.51543 | 34963 ft | 605 kts | 79° |
| 2026-04-30 05:57 | 31.92783 | 126.61138 | 34990 ft | 605 kts | 79° |
| 2026-04-30 05:57 | 31.94899 | 126.70677 | 34987 ft | 605 kts | 79° |
| 2026-04-30 05:58 | 31.97026 | 126.80333 | 34982 ft | 605 kts | 79° |
| 2026-04-30 05:58 | 31.99109 | 126.89862 | 34982 ft | 604 kts | 79° |
| 2026-04-30 05:59 | 32.01199 | 126.99469 | 34943 ft | 604 kts | 79° |
| 2026-04-30 05:59 | 32.03280 | 127.09047 | 34972 ft | 604 kts | 78° |
| 2026-04-30 06:00 | 32.06281 | 127.18335 | 34971 ft | 608 kts | 69° |
| 2026-04-30 06:00 | 32.09670 | 127.27470 | 34960 ft | 608 kts | 67° |
| 2026-04-30 06:01 | 32.13135 | 127.36576 | 34963 ft | 608 kts | 67° |
| 2026-04-30 06:01 | 32.16561 | 127.45631 | 34960 ft | 607 kts | 68° |
| 2026-04-30 06:02 | 32.19980 | 127.54751 | 34964 ft | 606 kts | 68° |
| 2026-04-30 06:02 | 32.23378 | 127.63866 | 34955 ft | 606 kts | 68° |
| 2026-04-30 06:03 | 32.26774 | 127.73000 | 34917 ft | 606 kts | 68° |
| 2026-04-30 06:03 | 32.30159 | 127.82123 | 34976 ft | 605 kts | 68° |
| 2026-04-30 06:04 | 32.33515 | 127.91189 | 34947 ft | 606 kts | 68° |
| 2026-04-30 06:05 | 32.38572 | 128.04898 | 34945 ft | 605 kts | 68° |
| 2026-04-30 06:05 | 32.41927 | 128.14024 | 34937 ft | 605 kts | 68° |
| 2026-04-30 06:06 | 32.45254 | 128.23100 | 34923 ft | 604 kts | 68° |
| 2026-04-30 06:06 | 32.48594 | 128.32234 | 34942 ft | 604 kts | 68° |
| 2026-04-30 06:07 | 32.51924 | 128.41369 | 34961 ft | 604 kts | 68° |
| 2026-04-30 06:07 | 32.55250 | 128.50514 | 34932 ft | 604 kts | 68° |
| 2026-04-30 06:08 | 32.58566 | 128.59659 | 34935 ft | 604 kts | 69° |
| 2026-04-30 06:08 | 32.61878 | 128.68815 | 34923 ft | 604 kts | 69° |
| 2026-04-30 06:09 | 32.65164 | 128.77926 | 34939 ft | 604 kts | 68° |
| 2026-04-30 06:09 | 32.67810 | 128.87326 | 34938 ft | 599 kts | 78° |
| 2026-04-30 06:10 | 32.69864 | 128.96900 | 34948 ft | 598 kts | 80° |
| 2026-04-30 06:10 | 32.71801 | 129.06513 | 34952 ft | 599 kts | 80° |
| 2026-04-30 06:11 | 32.73733 | 129.16139 | 34906 ft | 598 kts | 80° |
| 2026-04-30 06:11 | 32.75676 | 129.25754 | 34911 ft | 598 kts | 80° |
| 2026-04-30 06:12 | 32.77621 | 129.35369 | 34872 ft | 598 kts | 80° |
| 2026-04-30 06:12 | 32.79559 | 129.44982 | 34907 ft | 597 kts | 80° |
| 2026-04-30 06:13 | 32.81474 | 129.54529 | 34907 ft | 597 kts | 80° |
| 2026-04-30 06:13 | 32.83392 | 129.64136 | 34894 ft | 596 kts | 81° |
| 2026-04-30 06:14 | 32.85240 | 129.73735 | 34888 ft | 594 kts | 83° |
| 2026-04-30 06:14 | 32.86635 | 129.83407 | 34877 ft | 592 kts | 86° |
| 2026-04-30 06:15 | 32.87902 | 129.93038 | 34884 ft | 592 kts | 85° |
| 2026-04-30 06:15 | 32.89235 | 130.02694 | 34884 ft | 592 kts | 85° |
| 2026-04-30 06:16 | 32.90616 | 130.12359 | 34886 ft | 591 kts | 85° |
| 2026-04-30 06:16 | 32.91997 | 130.21991 | 34888 ft | 591 kts | 85° |
| 2026-04-30 06:17 | 32.93371 | 130.31658 | 34884 ft | 590 kts | 85° |
| 2026-04-30 06:17 | 32.94728 | 130.41283 | 34889 ft | 589 kts | 85° |
| 2026-04-30 06:18 | 32.96076 | 130.50913 | 34875 ft | 589 kts | 85° |
| 2026-04-30 06:18 | 32.97406 | 130.60472 | 34888 ft | 589 kts | 85° |
| 2026-04-30 06:19 | 32.98738 | 130.70093 | 34888 ft | 589 kts | 85° |
| 2026-04-30 06:19 | 33.00062 | 130.79713 | 34885 ft | 589 kts | 85° |
| 2026-04-30 06:20 | 33.01380 | 130.89347 | 34886 ft | 589 kts | 85° |
| 2026-04-30 06:20 | 33.02691 | 130.98980 | 34890 ft | 588 kts | 85° |
| 2026-04-30 06:21 | 33.03982 | 131.08530 | 34901 ft | 588 kts | 85° |
| 2026-04-30 06:21 | 33.05275 | 131.18150 | 34919 ft | 587 kts | 85° |
| 2026-04-30 06:22 | 33.06560 | 131.27765 | 34933 ft | 586 kts | 85° |
| 2026-04-30 06:22 | 33.07836 | 131.37381 | 34918 ft | 586 kts | 85° |
| 2026-04-30 06:23 | 33.09100 | 131.46956 | 34938 ft | 584 kts | 85° |
| 2026-04-30 06:23 | 33.10354 | 131.56522 | 34925 ft | 583 kts | 86° |
| 2026-04-30 06:24 | 33.11589 | 131.66011 | 34953 ft | 582 kts | 86° |
| 2026-04-30 06:24 | 33.12825 | 131.75566 | 34955 ft | 583 kts | 86° |
| 2026-04-30 06:25 | 33.14053 | 131.85117 | 34947 ft | 582 kts | 86° |
| 2026-04-30 06:25 | 33.15277 | 131.94683 | 34944 ft | 582 kts | 86° |
| 2026-04-30 06:26 | 33.16490 | 132.04226 | 34940 ft | 580 kts | 86° |
| 2026-04-30 06:26 | 33.17683 | 132.13670 | 34938 ft | 579 kts | 86° |
| 2026-04-30 06:27 | 33.18876 | 132.23186 | 34931 ft | 579 kts | 86° |
| 2026-04-30 06:27 | 33.20063 | 132.32700 | 34936 ft | 579 kts | 86° |
| 2026-04-30 06:28 | 33.21243 | 132.42219 | 34945 ft | 579 kts | 86° |
| 2026-04-30 06:28 | 33.22420 | 132.51784 | 34932 ft | 583 kts | 86° |
| 2026-04-30 06:29 | 33.23591 | 132.61361 | 34935 ft | 583 kts | 86° |
| 2026-04-30 06:29 | 33.24750 | 132.70902 | 34953 ft | 583 kts | 86° |
| 2026-04-30 06:30 | 33.25911 | 132.80495 | 34972 ft | 583 kts | 86° |
| 2026-04-30 06:30 | 33.27064 | 132.90092 | 34979 ft | 583 kts | 86° |
| 2026-04-30 06:31 | 33.28210 | 132.99695 | 34969 ft | 583 kts | 87° |
| 2026-04-30 06:31 | 33.29345 | 133.09285 | 34984 ft | 581 kts | 87° |
| 2026-04-30 06:32 | 33.30463 | 133.18830 | 34991 ft | 579 kts | 87° |
| 2026-04-30 06:32 | 33.31578 | 133.28369 | 34997 ft | 579 kts | 87° |
| 2026-04-30 06:33 | 33.32675 | 133.37833 | 35000 ft | 577 kts | 87° |
| 2026-04-30 06:33 | 33.33768 | 133.47334 | 34990 ft | 577 kts | 87° |
| 2026-04-30 06:34 | 33.34855 | 133.56857 | 34995 ft | 577 kts | 87° |
| 2026-04-30 06:34 | 33.35936 | 133.66383 | 34986 ft | 577 kts | 87° |
| 2026-04-30 06:35 | 33.37003 | 133.75859 | 34997 ft | 579 kts | 87° |
| 2026-04-30 06:35 | 33.38072 | 133.85413 | 35005 ft | 579 kts | 87° |
| 2026-04-30 06:36 | 33.39133 | 133.94962 | 35006 ft | 579 kts | 88° |
| 2026-04-30 06:36 | 33.40189 | 134.04532 | 35005 ft | 579 kts | 88° |
| 2026-04-30 06:37 | 33.41237 | 134.14082 | 35022 ft | 578 kts | 88° |
| 2026-04-30 06:37 | 33.42275 | 134.23629 | 35010 ft | 578 kts | 88° |
| 2026-04-30 06:38 | 33.43303 | 134.33162 | 35040 ft | 576 kts | 88° |
| 2026-04-30 06:38 | 33.44323 | 134.42675 | 35025 ft | 576 kts | 87° |
| 2026-04-30 06:39 | 33.45327 | 134.52118 | 35204 ft | 574 kts | 87° |
| 2026-04-30 06:39 | 33.45831 | 134.56840 | 35454 ft | 572 kts | 88° |
| 2026-04-30 06:39 | 33.46332 | 134.61580 | 35622 ft | 572 kts | 88° |
| 2026-04-30 06:39 | 33.46826 | 134.66301 | 35788 ft | 571 kts | 87° |
| 2026-04-30 06:40 | 33.47318 | 134.71021 | 35964 ft | 571 kts | 88° |
| 2026-04-30 06:40 | 33.47808 | 134.75741 | 36117 ft | 571 kts | 88° |
| 2026-04-30 06:40 | 33.48296 | 134.80460 | 36253 ft | 571 kts | 88° |
| 2026-04-30 06:41 | 33.49107 | 134.88318 | 36496 ft | 573 kts | 88° |
| 2026-04-30 06:41 | 33.50082 | 134.97847 | 36579 ft | 577 kts | 88° |
| 2026-04-30 06:41 | 33.50573 | 135.02625 | 36730 ft | 575 kts | 88° |
| 2026-04-30 06:42 | 33.51059 | 135.07376 | 36891 ft | 575 kts | 88° |
| 2026-04-30 06:42 | 33.51543 | 135.12135 | 37014 ft | 575 kts | 88° |
| 2026-04-30 06:42 | 33.52024 | 135.16913 | 37043 ft | 577 kts | 88° |
| 2026-04-30 06:43 | 33.52978 | 135.26443 | 37043 ft | 580 kts | 88° |
| 2026-04-30 06:43 | 33.53936 | 135.36048 | 37048 ft | 579 kts | 88° |
| 2026-04-30 06:44 | 33.54886 | 135.45628 | 37049 ft | 579 kts | 88° |
| 2026-04-30 06:44 | 33.55826 | 135.55214 | 37051 ft | 579 kts | 88° |
| 2026-04-30 06:45 | 33.56759 | 135.64816 | 37059 ft | 579 kts | 88° |
| 2026-04-30 06:45 | 33.57686 | 135.74403 | 37068 ft | 579 kts | 88° |
| 2026-04-30 06:46 | 33.58598 | 135.83927 | 37083 ft | 576 kts | 87° |
| 2026-04-30 06:46 | 33.59505 | 135.93467 | 37087 ft | 575 kts | 87° |
| 2026-04-30 06:47 | 33.60402 | 136.03001 | 37093 ft | 575 kts | 87° |
| 2026-04-30 06:47 | 33.61294 | 136.12555 | 37089 ft | 575 kts | 88° |
| 2026-04-30 06:48 | 33.62178 | 136.22100 | 37098 ft | 575 kts | 88° |
| 2026-04-30 06:48 | 33.63054 | 136.31648 | 37074 ft | 575 kts | 87° |
| 2026-04-30 06:49 | 33.63920 | 136.41158 | 37098 ft | 572 kts | 87° |
| 2026-04-30 06:49 | 33.64770 | 136.50571 | 37098 ft | 571 kts | 87° |
| 2026-04-30 06:50 | 33.65618 | 136.60052 | 37096 ft | 571 kts | 87° |
| 2026-04-30 06:50 | 33.66460 | 136.69546 | 37094 ft | 571 kts | 87° |
| 2026-04-30 06:51 | 33.67294 | 136.79037 | 37098 ft | 571 kts | 88° |
| 2026-04-30 06:51 | 33.68119 | 136.88507 | 37085 ft | 570 kts | 87° |
| 2026-04-30 06:52 | 33.68930 | 136.97896 | 37105 ft | 568 kts | 87° |
| 2026-04-30 06:52 | 33.69739 | 137.07346 | 37095 ft | 568 kts | 87° |
| 2026-04-30 06:53 | 33.70450 | 137.16787 | 37091 ft | 566 kts | 91° |
| 2026-04-30 06:53 | 33.70697 | 137.26221 | 37090 ft | 565 kts | 93° |
| 2026-04-30 06:54 | 33.70862 | 137.35659 | 37097 ft | 565 kts | 92° |
| 2026-04-30 06:54 | 33.71088 | 137.45088 | 37092 ft | 565 kts | 91° |
| 2026-04-30 06:55 | 33.71353 | 137.54530 | 37096 ft | 565 kts | 91° |
| 2026-04-30 06:55 | 33.71618 | 137.63887 | 37099 ft | 565 kts | 91° |
| 2026-04-30 06:56 | 33.71875 | 137.73340 | 37103 ft | 566 kts | 91° |
| 2026-04-30 06:56 | 33.72122 | 137.82785 | 37105 ft | 566 kts | 91° |
| 2026-04-30 06:57 | 33.72361 | 137.92247 | 37094 ft | 566 kts | 91° |
| 2026-04-30 06:57 | 33.72593 | 138.01692 | 37105 ft | 565 kts | 91° |
| 2026-04-30 06:58 | 33.72818 | 138.11135 | 37100 ft | 566 kts | 91° |
| 2026-04-30 06:58 | 33.73036 | 138.20583 | 37101 ft | 566 kts | 91° |
| 2026-04-30 06:59 | 33.73246 | 138.30043 | 37106 ft | 567 kts | 92° |
| 2026-04-30 06:59 | 33.73449 | 138.39464 | 37092 ft | 568 kts | 91° |
| 2026-04-30 07:00 | 33.74187 | 138.48911 | 37114 ft | 572 kts | 77° |
| 2026-04-30 07:00 | 33.75454 | 138.53438 | 37117 ft | 572 kts | 65° |
| 2026-04-30 07:00 | 33.77282 | 138.57689 | 37120 ft | 572 kts | 59° |
| 2026-04-30 07:01 | 33.81350 | 138.65932 | 37126 ft | 573 kts | 56° |
| 2026-04-30 07:01 | 33.85553 | 138.74074 | 37128 ft | 573 kts | 56° |
| 2026-04-30 07:02 | 33.89703 | 138.82192 | 37126 ft | 573 kts | 57° |
| 2026-04-30 07:02 | 33.93843 | 138.90402 | 37136 ft | 573 kts | 57° |
| 2026-04-30 07:03 | 33.97959 | 138.98616 | 37128 ft | 572 kts | 57° |
| 2026-04-30 07:03 | 34.02067 | 139.06836 | 37140 ft | 572 kts | 57° |
| 2026-04-30 07:04 | 34.06186 | 139.15086 | 37141 ft | 574 kts | 57° |
| 2026-04-30 07:04 | 34.10298 | 139.23341 | 37139 ft | 574 kts | 57° |
| 2026-04-30 07:05 | 34.16438 | 139.35695 | 37148 ft | 574 kts | 57° |
| 2026-04-30 07:05 | 34.20540 | 139.43976 | 37151 ft | 574 kts | 57° |
| 2026-04-30 07:06 | 34.24632 | 139.52259 | 37154 ft | 574 kts | 57° |
| 2026-04-30 07:06 | 34.28727 | 139.60565 | 37154 ft | 575 kts | 57° |
| 2026-04-30 07:07 | 34.32818 | 139.68879 | 37157 ft | 575 kts | 57° |
| 2026-04-30 07:07 | 34.36900 | 139.77196 | 37164 ft | 575 kts | 57° |
| 2026-04-30 07:08 | 34.40985 | 139.85539 | 37166 ft | 575 kts | 57° |
| 2026-04-30 07:08 | 34.45029 | 139.93818 | 37162 ft | 575 kts | 57° |
| 2026-04-30 07:09 | 34.49106 | 140.02182 | 37167 ft | 575 kts | 57° |
| 2026-04-30 07:09 | 34.53175 | 140.10552 | 37165 ft | 576 kts | 57° |
| 2026-04-30 07:10 | 34.57236 | 140.18927 | 37168 ft | 576 kts | 57° |
| 2026-04-30 07:10 | 34.61290 | 140.27305 | 37171 ft | 575 kts | 57° |
| 2026-04-30 07:11 | 34.65337 | 140.35690 | 37172 ft | 575 kts | 57° |
| 2026-04-30 07:11 | 34.69347 | 140.44017 | 37178 ft | 575 kts | 57° |
| 2026-04-30 07:12 | 34.73319 | 140.52457 | 37174 ft | 574 kts | 58° |
| 2026-04-30 07:12 | 34.77200 | 140.60959 | 37175 ft | 574 kts | 58° |
| 2026-04-30 07:13 | 34.81055 | 140.69419 | 37188 ft | 574 kts | 59° |
| 2026-04-30 07:13 | 34.84939 | 140.77921 | 37183 ft | 574 kts | 59° |
| 2026-04-30 07:14 | 34.88826 | 140.86432 | 37185 ft | 574 kts | 59° |
| 2026-04-30 07:14 | 34.92713 | 140.94959 | 37172 ft | 575 kts | 59° |
| 2026-04-30 07:15 | 34.96586 | 141.03480 | 37191 ft | 575 kts | 59° |
| 2026-04-30 07:15 | 35.00436 | 141.11974 | 37203 ft | 575 kts | 59° |
| 2026-04-30 07:16 | 35.04304 | 141.20528 | 37183 ft | 576 kts | 59° |
| 2026-04-30 07:16 | 35.08172 | 141.29106 | 37210 ft | 576 kts | 59° |
| 2026-04-30 07:17 | 35.12038 | 141.37704 | 37196 ft | 579 kts | 59° |
| 2026-04-30 07:18 | 35.17868 | 141.50693 | 37191 ft | 581 kts | 59° |
| 2026-04-30 07:18 | 35.21751 | 141.59377 | 37194 ft | 582 kts | 59° |
| 2026-04-30 07:19 | 35.25623 | 141.68061 | 37195 ft | 582 kts | 59° |
| 2026-04-30 07:19 | 35.29469 | 141.76707 | 37197 ft | 581 kts | 59° |
| 2026-04-30 07:20 | 35.33332 | 141.85415 | 37208 ft | 582 kts | 59° |
| 2026-04-30 07:20 | 35.37194 | 141.94141 | 37205 ft | 582 kts | 59° |
| 2026-04-30 07:21 | 35.41050 | 142.02879 | 37208 ft | 582 kts | 59° |
| 2026-04-30 07:21 | 35.44878 | 142.11576 | 37211 ft | 582 kts | 59° |
| 2026-04-30 07:22 | 35.50640 | 142.24705 | 37214 ft | 582 kts | 59° |
| 2026-04-30 07:22 | 35.54468 | 142.33457 | 37220 ft | 582 kts | 58° |
| 2026-04-30 07:23 | 35.58293 | 142.42223 | 37220 ft | 582 kts | 59° |
| 2026-04-30 07:23 | 35.62111 | 142.50997 | 37221 ft | 582 kts | 59° |
| 2026-04-30 07:24 | 35.65920 | 142.59775 | 37223 ft | 582 kts | 59° |
| 2026-04-30 07:24 | 35.69724 | 142.68561 | 37225 ft | 582 kts | 59° |
| 2026-04-30 07:25 | 35.73531 | 142.77379 | 37243 ft | 582 kts | 58° |
| 2026-04-30 07:25 | 35.77304 | 142.86143 | 37241 ft | 583 kts | 59° |
| 2026-04-30 07:26 | 35.81099 | 142.94979 | 37227 ft | 583 kts | 59° |
| 2026-04-30 07:26 | 35.84882 | 143.03813 | 37238 ft | 583 kts | 59° |
| 2026-04-30 07:27 | 35.88667 | 143.12674 | 37237 ft | 584 kts | 59° |
| 2026-04-30 07:27 | 35.92212 | 143.21695 | 37237 ft | 588 kts | 69° |
| 2026-04-30 07:28 | 35.93733 | 143.29882 | 37243 ft | 589 kts | 81° |
| 2026-04-30 07:28 | 35.94876 | 143.39913 | 37246 ft | 590 kts | 83° |
| 2026-04-30 07:29 | 35.95844 | 143.49969 | 37267 ft | 590 kts | 84° |
| 2026-04-30 07:29 | 35.96822 | 143.60050 | 37247 ft | 592 kts | 83° |
| 2026-04-30 07:30 | 35.98331 | 143.75130 | 37265 ft | 592 kts | 83° |
| 2026-04-30 07:31 | 35.99342 | 143.85234 | 37246 ft | 592 kts | 83° |
| 2026-04-30 07:31 | 36.00343 | 143.95328 | 37248 ft | 591 kts | 83° |
| 2026-04-30 07:32 | 36.01736 | 144.05322 | 37250 ft | 589 kts | 70° |
| 2026-04-30 07:32 | 36.03275 | 144.09980 | 37249 ft | 582 kts | 57° |
| 2026-04-30 07:32 | 36.05461 | 144.14137 | 37255 ft | 572 kts | 44° |
| 2026-04-30 07:33 | 36.10675 | 144.21432 | 37254 ft | 568 kts | 40° |
| 2026-04-30 07:33 | 36.16161 | 144.28492 | 37279 ft | 568 kts | 38° |
| 2026-04-30 07:34 | 36.21658 | 144.35553 | 37259 ft | 570 kts | 39° |
| 2026-04-30 07:34 | 36.27125 | 144.42674 | 37260 ft | 570 kts | 39° |
| 2026-04-30 07:35 | 36.32573 | 144.49835 | 37267 ft | 571 kts | 39° |
| 2026-04-30 07:35 | 36.38009 | 144.57005 | 37263 ft | 571 kts | 39° |
| 2026-04-30 07:36 | 36.43421 | 144.64152 | 37262 ft | 571 kts | 39° |
| 2026-04-30 07:36 | 36.48870 | 144.71361 | 37266 ft | 571 kts | 39° |
| 2026-04-30 07:37 | 36.54317 | 144.78583 | 37277 ft | 571 kts | 39° |
| 2026-04-30 07:37 | 36.59760 | 144.85812 | 37267 ft | 574 kts | 39° |
| 2026-04-30 07:38 | 36.65178 | 144.93027 | 37266 ft | 574 kts | 39° |
| 2026-04-30 07:38 | 36.70623 | 145.00297 | 37272 ft | 574 kts | 39° |
| 2026-04-30 07:39 | 36.76081 | 145.07600 | 37267 ft | 575 kts | 39° |
| 2026-04-30 07:39 | 36.81544 | 145.14923 | 37276 ft | 575 kts | 39° |
| 2026-04-30 07:40 | 36.86997 | 145.22250 | 37269 ft | 575 kts | 39° |
| 2026-04-30 07:40 | 36.92446 | 145.29588 | 37284 ft | 577 kts | 39° |
| 2026-04-30 07:41 | 36.97904 | 145.36952 | 37279 ft | 578 kts | 39° |
| 2026-04-30 07:41 | 37.03337 | 145.44303 | 37279 ft | 578 kts | 39° |
| 2026-04-30 07:42 | 37.08806 | 145.51719 | 37281 ft | 578 kts | 39° |
| 2026-04-30 07:42 | 37.14268 | 145.59144 | 37287 ft | 580 kts | 39° |
| 2026-04-30 07:43 | 37.19615 | 145.66760 | 37279 ft | 589 kts | 47° |
| 2026-04-30 07:43 | 37.24192 | 145.75346 | 37286 ft | 593 kts | 51° |
| 2026-04-30 07:44 | 37.28583 | 145.84142 | 37287 ft | 596 kts | 51° |
| 2026-04-30 07:44 | 37.32923 | 145.92958 | 37284 ft | 598 kts | 51° |
| 2026-04-30 07:45 | 37.37318 | 146.01861 | 37284 ft | 599 kts | 51° |
| 2026-04-30 07:45 | 37.41719 | 146.10758 | 37285 ft | 599 kts | 51° |
| 2026-04-30 07:46 | 37.46130 | 146.19686 | 37284 ft | 600 kts | 51° |
| 2026-04-30 07:46 | 37.50533 | 146.28625 | 37284 ft | 600 kts | 51° |
| 2026-04-30 07:47 | 37.54908 | 146.37534 | 37289 ft | 601 kts | 51° |
| 2026-04-30 07:47 | 37.59310 | 146.46523 | 37287 ft | 602 kts | 51° |
| 2026-04-30 07:48 | 37.63710 | 146.55531 | 37288 ft | 602 kts | 51° |
| 2026-04-30 07:48 | 37.68094 | 146.64534 | 37289 ft | 602 kts | 51° |
| 2026-04-30 07:49 | 37.72475 | 146.73555 | 37286 ft | 602 kts | 51° |
| 2026-04-30 07:49 | 37.76851 | 146.82590 | 37288 ft | 602 kts | 51° |
| 2026-04-30 07:50 | 37.81191 | 146.91575 | 37286 ft | 603 kts | 51° |
| 2026-04-30 07:50 | 37.85565 | 147.00653 | 37326 ft | 604 kts | 51° |
| 2026-04-30 07:51 | 37.89932 | 147.09743 | 37289 ft | 605 kts | 51° |
| 2026-04-30 07:51 | 37.94312 | 147.18888 | 37291 ft | 606 kts | 50° |
| 2026-04-30 07:52 | 37.98654 | 147.27978 | 37286 ft | 606 kts | 50° |
| 2026-04-30 07:52 | 38.03013 | 147.37128 | 37286 ft | 606 kts | 50° |
| 2026-04-30 07:53 | 38.07370 | 147.46304 | 37296 ft | 607 kts | 50° |
| 2026-04-30 07:53 | 38.11721 | 147.55488 | 37297 ft | 607 kts | 50° |
| 2026-04-30 07:54 | 38.16065 | 147.64686 | 37288 ft | 607 kts | 50° |
| 2026-04-30 07:54 | 38.20404 | 147.73903 | 37291 ft | 607 kts | 50° |
| 2026-04-30 07:55 | 38.24711 | 147.83071 | 37286 ft | 607 kts | 50° |
| 2026-04-30 07:55 | 38.29037 | 147.92307 | 37287 ft | 608 kts | 50° |
| 2026-04-30 07:56 | 38.33362 | 148.01569 | 37287 ft | 608 kts | 50° |
| 2026-04-30 07:56 | 38.37680 | 148.10842 | 37287 ft | 608 kts | 50° |
| 2026-04-30 07:57 | 38.41990 | 148.20126 | 37322 ft | 608 kts | 50° |
| 2026-04-30 07:57 | 38.46304 | 148.29449 | 37298 ft | 609 kts | 49° |
| 2026-04-30 07:58 | 38.50580 | 148.38712 | 37291 ft | 609 kts | 49° |
| 2026-04-30 07:58 | 38.54884 | 148.48060 | 37310 ft | 609 kts | 49° |
| 2026-04-30 07:59 | 38.59171 | 148.57405 | 37289 ft | 609 kts | 49° |
| 2026-04-30 07:59 | 38.63453 | 148.66762 | 37289 ft | 609 kts | 49° |
| 2026-04-30 08:00 | 38.69867 | 148.80828 | 37296 ft | 610 kts | 49° |
| 2026-04-30 08:00 | 38.74110 | 148.90169 | 37290 ft | 610 kts | 49° |
| 2026-04-30 08:01 | 38.78371 | 148.99578 | 37287 ft | 610 kts | 49° |
| 2026-04-30 08:01 | 38.82626 | 149.09006 | 37293 ft | 610 kts | 49° |
| 2026-04-30 08:02 | 38.89005 | 149.23186 | 37290 ft | 611 kts | 49° |
| 2026-04-30 08:03 | 38.97454 | 149.42067 | 37292 ft | 611 kts | 49° |
| 2026-04-30 08:04 | 39.01681 | 149.51556 | 37287 ft | 611 kts | 49° |
| 2026-04-30 08:04 | 39.05900 | 149.61056 | 37324 ft | 612 kts | 49° |
| 2026-04-30 08:05 | 39.10115 | 149.70577 | 37283 ft | 612 kts | 49° |
| 2026-04-30 08:05 | 39.14326 | 149.80112 | 37283 ft | 612 kts | 49° |
| 2026-04-30 08:06 | 39.18534 | 149.89638 | 37323 ft | 612 kts | 48° |
| 2026-04-30 08:06 | 39.22770 | 149.99152 | 37287 ft | 611 kts | 48° |
| 2026-04-30 08:07 | 39.27000 | 150.08664 | 37284 ft | 611 kts | 48° |
| 2026-04-30 08:07 | 39.31220 | 150.18202 | 37319 ft | 612 kts | 48° |
| 2026-04-30 08:08 | 39.35423 | 150.27750 | 37277 ft | 611 kts | 48° |
| 2026-04-30 08:08 | 39.39586 | 150.37230 | 37280 ft | 611 kts | 48° |
| 2026-04-30 08:09 | 39.43774 | 150.46795 | 37329 ft | 611 kts | 47° |
| 2026-04-30 08:09 | 39.47944 | 150.56353 | 37286 ft | 610 kts | 47° |
| 2026-04-30 08:10 | 39.52111 | 150.65927 | 37282 ft | 609 kts | 47° |
| 2026-04-30 08:10 | 39.56267 | 150.75506 | 37343 ft | 609 kts | 47° |
| 2026-04-30 08:11 | 39.60399 | 150.85071 | 37291 ft | 608 kts | 47° |
| 2026-04-30 08:11 | 39.64522 | 150.94632 | 37285 ft | 607 kts | 47° |
| 2026-04-30 08:12 | 39.68640 | 151.04207 | 37283 ft | 607 kts | 47° |
| 2026-04-30 08:12 | 39.72745 | 151.13790 | 37286 ft | 607 kts | 47° |
| 2026-04-30 08:13 | 39.76810 | 151.23308 | 37280 ft | 606 kts | 47° |
| 2026-04-30 08:13 | 39.80900 | 151.32910 | 37281 ft | 606 kts | 47° |
| 2026-04-30 08:14 | 39.84975 | 151.42516 | 37280 ft | 605 kts | 47° |
| 2026-04-30 08:14 | 39.89037 | 151.52119 | 37282 ft | 604 kts | 47° |
| 2026-04-30 08:15 | 39.92407 | 151.60101 | 37283 ft | 605 kts | 47° |
| 2026-04-30 08:15 | 39.96447 | 151.69705 | 37282 ft | 603 kts | 47° |
| 2026-04-30 08:16 | 40.00469 | 151.79302 | 37278 ft | 602 kts | 47° |
| 2026-04-30 08:16 | 40.04477 | 151.88884 | 37284 ft | 602 kts | 47° |
| 2026-04-30 08:17 | 40.08459 | 151.98435 | 37291 ft | 600 kts | 47° |
| 2026-04-30 08:17 | 40.12406 | 152.07963 | 37280 ft | 592 kts | 49° |
| 2026-04-30 08:18 | 40.16325 | 152.17428 | 37275 ft | 591 kts | 49° |
| 2026-04-30 08:18 | 40.20220 | 152.26842 | 37277 ft | 591 kts | 49° |
| 2026-04-30 08:19 | 40.24125 | 152.36319 | 37270 ft | 591 kts | 49° |
| 2026-04-30 08:19 | 40.28017 | 152.45802 | 37271 ft | 591 kts | 49° |
| 2026-04-30 08:20 | 40.31908 | 152.55315 | 37286 ft | 591 kts | 49° |
| 2026-04-30 08:20 | 40.35767 | 152.64792 | 37261 ft | 588 kts | 49° |
| 2026-04-30 08:21 | 40.39610 | 152.74250 | 37276 ft | 587 kts | 49° |
| 2026-04-30 08:21 | 40.43428 | 152.83665 | 37308 ft | 588 kts | 50° |
| 2026-04-30 08:22 | 40.47238 | 152.93109 | 37261 ft | 582 kts | 50° |
| 2026-04-30 08:22 | 40.51028 | 153.02526 | 37261 ft | 581 kts | 50° |
| 2026-04-30 08:23 | 40.54807 | 153.11932 | 37262 ft | 581 kts | 50° |
| 2026-04-30 08:23 | 40.58547 | 153.21276 | 37258 ft | 580 kts | 51° |
| 2026-04-30 08:24 | 40.62294 | 153.30672 | 37276 ft | 579 kts | 51° |
| 2026-04-30 08:24 | 40.66019 | 153.40047 | 37254 ft | 576 kts | 51° |
| 2026-04-30 08:25 | 40.69724 | 153.49391 | 37256 ft | 574 kts | 51° |
| 2026-04-30 08:25 | 40.73409 | 153.58714 | 37250 ft | 573 kts | 51° |
| 2026-04-30 08:26 | 40.77090 | 153.68057 | 37244 ft | 573 kts | 52° |
| 2026-04-30 08:26 | 40.80736 | 153.77340 | 37252 ft | 573 kts | 52° |
| 2026-04-30 08:27 | 40.84384 | 153.86667 | 37239 ft | 571 kts | 52° |
| 2026-04-30 08:27 | 40.88028 | 153.96008 | 37237 ft | 571 kts | 52° |
| 2026-04-30 08:28 | 40.91667 | 154.05361 | 37277 ft | 571 kts | 52° |
| 2026-04-30 08:28 | 40.95269 | 154.14653 | 37234 ft | 570 kts | 53° |
| 2026-04-30 08:29 | 40.98877 | 154.23990 | 37243 ft | 569 kts | 53° |
| 2026-04-30 08:29 | 41.02482 | 154.33347 | 37226 ft | 569 kts | 53° |
| 2026-04-30 08:30 | 41.06070 | 154.42689 | 37229 ft | 568 kts | 53° |
| 2026-04-30 08:30 | 41.09643 | 154.52025 | 37229 ft | 568 kts | 53° |
| 2026-04-30 08:31 | 41.13209 | 154.61371 | 37295 ft | 568 kts | 54° |
| 2026-04-30 08:31 | 41.16734 | 154.70647 | 37236 ft | 565 kts | 54° |
| 2026-04-30 08:32 | 41.20262 | 154.79957 | 37228 ft | 563 kts | 54° |
| 2026-04-30 08:32 | 41.23779 | 154.89256 | 37228 ft | 563 kts | 54° |
| 2026-04-30 08:33 | 41.27287 | 154.98564 | 37236 ft | 563 kts | 55° |
| 2026-04-30 08:33 | 41.30783 | 155.07872 | 37222 ft | 562 kts | 56° |
| 2026-04-30 08:34 | 41.34268 | 155.17183 | 37221 ft | 562 kts | 56° |
| 2026-04-30 08:34 | 41.37744 | 155.26501 | 37222 ft | 562 kts | 56° |
| 2026-04-30 08:35 | 41.41196 | 155.35784 | 37222 ft | 562 kts | 56° |
| 2026-04-30 08:35 | 41.44658 | 155.45122 | 37216 ft | 562 kts | 56° |
| 2026-04-30 08:36 | 41.48114 | 155.54478 | 37214 ft | 562 kts | 56° |
| 2026-04-30 08:36 | 41.51561 | 155.63837 | 37231 ft | 562 kts | 56° |
| 2026-04-30 08:37 | 41.54996 | 155.73195 | 37209 ft | 561 kts | 56° |
| 2026-04-30 08:37 | 41.58428 | 155.82577 | 37208 ft | 561 kts | 56° |
| 2026-04-30 08:38 | 41.61835 | 155.91920 | 37202 ft | 561 kts | 56° |
| 2026-04-30 08:38 | 41.65252 | 156.01317 | 37205 ft | 560 kts | 57° |
| 2026-04-30 08:39 | 41.68616 | 156.10608 | 37198 ft | 558 kts | 57° |
| 2026-04-30 08:39 | 41.71993 | 156.19962 | 37203 ft | 558 kts | 57° |
| 2026-04-30 08:40 | 41.75364 | 156.29323 | 37205 ft | 557 kts | 57° |
| 2026-04-30 08:40 | 41.78720 | 156.38681 | 37187 ft | 557 kts | 57° |
| 2026-04-30 08:41 | 41.82069 | 156.48046 | 37185 ft | 557 kts | 57° |
| 2026-04-30 08:41 | 41.85409 | 156.57420 | 37224 ft | 557 kts | 58° |
| 2026-04-30 08:42 | 41.88721 | 156.66744 | 37170 ft | 557 kts | 58° |
| 2026-04-30 08:42 | 41.92045 | 156.76135 | 37168 ft | 557 kts | 58° |
| 2026-04-30 08:43 | 41.95363 | 156.85541 | 37185 ft | 556 kts | 58° |
| 2026-04-30 08:43 | 41.98673 | 156.94952 | 37177 ft | 556 kts | 58° |
| 2026-04-30 08:44 | 42.01971 | 157.04364 | 37166 ft | 556 kts | 58° |
| 2026-04-30 08:44 | 42.05259 | 157.13781 | 37165 ft | 556 kts | 58° |
| 2026-04-30 08:45 | 42.08520 | 157.23149 | 37183 ft | 556 kts | 59° |
| 2026-04-30 08:45 | 42.11797 | 157.32592 | 37154 ft | 556 kts | 59° |
| 2026-04-30 08:46 | 42.15067 | 157.42053 | 37149 ft | 556 kts | 59° |
| 2026-04-30 08:46 | 42.18320 | 157.51496 | 37149 ft | 555 kts | 59° |
| 2026-04-30 08:47 | 42.21562 | 157.60936 | 37149 ft | 555 kts | 59° |
| 2026-04-30 08:47 | 42.24800 | 157.70397 | 37144 ft | 555 kts | 59° |
| 2026-04-30 08:48 | 42.28034 | 157.79880 | 37142 ft | 555 kts | 59° |
| 2026-04-30 08:48 | 42.31255 | 157.89359 | 37159 ft | 555 kts | 60° |
| 2026-04-30 08:49 | 42.34450 | 157.98791 | 37123 ft | 555 kts | 60° |
| 2026-04-30 08:49 | 42.37656 | 158.08291 | 37135 ft | 555 kts | 60° |
| 2026-04-30 08:50 | 42.40859 | 158.17813 | 37135 ft | 555 kts | 60° |
| 2026-04-30 08:50 | 42.44055 | 158.27347 | 37121 ft | 555 kts | 60° |
| 2026-04-30 08:51 | 42.47241 | 158.36886 | 37124 ft | 555 kts | 60° |
| 2026-04-30 08:51 | 42.50395 | 158.46362 | 37113 ft | 555 kts | 60° |
| 2026-04-30 08:52 | 42.53563 | 158.55915 | 37117 ft | 556 kts | 60° |
| 2026-04-30 08:52 | 42.56726 | 158.65485 | 37110 ft | 556 kts | 61° |
| 2026-04-30 08:53 | 42.59878 | 158.75055 | 37106 ft | 556 kts | 61° |
| 2026-04-30 08:53 | 42.63022 | 158.84636 | 37104 ft | 555 kts | 61° |
| 2026-04-30 08:54 | 42.66153 | 158.94209 | 37095 ft | 555 kts | 62° |
| 2026-04-30 08:54 | 42.69278 | 159.03797 | 37088 ft | 555 kts | 62° |
| 2026-04-30 08:55 | 42.72394 | 159.13395 | 37083 ft | 555 kts | 62° |
| 2026-04-30 08:55 | 42.75502 | 159.22999 | 37090 ft | 555 kts | 62° |
| 2026-04-30 08:56 | 42.78607 | 159.32632 | 37074 ft | 555 kts | 62° |
| 2026-04-30 08:56 | 42.81684 | 159.42210 | 37063 ft | 555 kts | 62° |
| 2026-04-30 08:57 | 42.84771 | 159.51857 | 37068 ft | 555 kts | 62° |
| 2026-04-30 08:57 | 42.87853 | 159.61520 | 37070 ft | 555 kts | 62° |
| 2026-04-30 08:58 | 42.90922 | 159.71178 | 37044 ft | 555 kts | 63° |
| 2026-04-30 08:58 | 42.93961 | 159.80780 | 37035 ft | 555 kts | 63° |
| 2026-04-30 08:59 | 42.97018 | 159.90468 | 37042 ft | 555 kts | 63° |
| 2026-04-30 08:59 | 42.99856 | 160.00277 | 37034 ft | 559 kts | 72° |
| 2026-04-30 09:00 | 43.01607 | 160.10647 | 37037 ft | 561 kts | 76° |
| 2026-04-30 09:00 | 43.03121 | 160.21110 | 37046 ft | 561 kts | 77° |
| 2026-04-30 09:01 | 43.04588 | 160.31593 | 37030 ft | 561 kts | 77° |
| 2026-04-30 09:01 | 43.06063 | 160.42076 | 37018 ft | 561 kts | 77° |
| 2026-04-30 09:02 | 43.08271 | 160.57732 | 37023 ft | 561 kts | 77° |
| 2026-04-30 09:02 | 43.09742 | 160.68233 | 37010 ft | 562 kts | 77° |
| 2026-04-30 09:03 | 43.11204 | 160.78752 | 37004 ft | 562 kts | 77° |
| 2026-04-30 09:03 | 43.12655 | 160.89273 | 37004 ft | 562 kts | 77° |
| 2026-04-30 09:04 | 43.14097 | 160.99798 | 36993 ft | 562 kts | 77° |
| 2026-04-30 09:04 | 43.15288 | 161.08554 | 36987 ft | 562 kts | 78° |
| 2026-04-30 09:05 | 43.16942 | 161.20801 | 36981 ft | 562 kts | 78° |
| 2026-04-30 09:05 | 43.18116 | 161.29548 | 36975 ft | 562 kts | 78° |
| 2026-04-30 09:06 | 43.19521 | 161.40097 | 36974 ft | 562 kts | 78° |
| 2026-04-30 09:06 | 43.20915 | 161.50639 | 36968 ft | 562 kts | 78° |
| 2026-04-30 09:07 | 43.22299 | 161.61182 | 36963 ft | 562 kts | 78° |
| 2026-04-30 09:07 | 43.23678 | 161.71765 | 36960 ft | 562 kts | 78° |
| 2026-04-30 09:08 | 43.25042 | 161.82317 | 36960 ft | 562 kts | 78° |
| 2026-04-30 09:08 | 43.26397 | 161.92874 | 36955 ft | 562 kts | 78° |
| 2026-04-30 09:09 | 43.27735 | 162.03376 | 36947 ft | 562 kts | 78° |
| 2026-04-30 09:09 | 43.29070 | 162.13945 | 36938 ft | 562 kts | 79° |
| 2026-04-30 09:10 | 43.30395 | 162.24510 | 36938 ft | 562 kts | 79° |
| 2026-04-30 09:10 | 43.31713 | 162.35097 | 36927 ft | 562 kts | 79° |
| 2026-04-30 09:11 | 43.33022 | 162.45702 | 36919 ft | 562 kts | 79° |
| 2026-04-30 09:11 | 43.34320 | 162.56299 | 36914 ft | 562 kts | 79° |
| 2026-04-30 09:12 | 43.35609 | 162.66907 | 36912 ft | 563 kts | 79° |
| 2026-04-30 09:12 | 43.36880 | 162.77457 | 36906 ft | 563 kts | 79° |
| 2026-04-30 09:13 | 43.38150 | 162.88076 | 36898 ft | 563 kts | 79° |
| 2026-04-30 09:13 | 43.39411 | 162.98713 | 36890 ft | 563 kts | 79° |
| 2026-04-30 09:14 | 43.40662 | 163.09351 | 36878 ft | 563 kts | 79° |
| 2026-04-30 09:14 | 43.41902 | 163.19982 | 36878 ft | 563 kts | 80° |
| 2026-04-30 09:15 | 43.43133 | 163.30625 | 36883 ft | 563 kts | 80° |
| 2026-04-30 09:15 | 43.44356 | 163.41285 | 36862 ft | 564 kts | 80° |
| 2026-04-30 09:16 | 43.45561 | 163.51882 | 36853 ft | 564 kts | 80° |
| 2026-04-30 09:16 | 43.46764 | 163.62553 | 36853 ft | 564 kts | 80° |
| 2026-04-30 09:17 | 43.47956 | 163.73222 | 36848 ft | 564 kts | 80° |
| 2026-04-30 09:17 | 43.49140 | 163.83911 | 36839 ft | 564 kts | 80° |
| 2026-04-30 09:18 | 43.50314 | 163.94601 | 36832 ft | 564 kts | 81° |
| 2026-04-30 09:18 | 43.51472 | 164.05240 | 36832 ft | 565 kts | 81° |
| 2026-04-30 09:19 | 43.52629 | 164.15966 | 36823 ft | 565 kts | 81° |
| 2026-04-30 09:19 | 43.53775 | 164.26689 | 36818 ft | 565 kts | 81° |
| 2026-04-30 09:20 | 43.54911 | 164.37407 | 36825 ft | 565 kts | 81° |
| 2026-04-30 09:20 | 43.56036 | 164.48136 | 36807 ft | 565 kts | 81° |
| 2026-04-30 09:21 | 43.57147 | 164.58815 | 36801 ft | 566 kts | 81° |
| 2026-04-30 09:21 | 43.58255 | 164.69570 | 36799 ft | 566 kts | 81° |
| 2026-04-30 09:22 | 43.59353 | 164.80328 | 36791 ft | 568 kts | 82° |
| 2026-04-30 09:22 | 43.60445 | 164.91137 | 36793 ft | 568 kts | 82° |
| 2026-04-30 09:23 | 43.61520 | 165.01887 | 36784 ft | 568 kts | 82° |
| 2026-04-30 09:23 | 43.62591 | 165.12694 | 36776 ft | 569 kts | 82° |
| 2026-04-30 09:24 | 43.63654 | 165.23520 | 36777 ft | 569 kts | 82° |
| 2026-04-30 09:24 | 43.64706 | 165.34350 | 36777 ft | 569 kts | 82° |
| 2026-04-30 09:25 | 43.65749 | 165.45201 | 36772 ft | 569 kts | 82° |
| 2026-04-30 09:25 | 43.66781 | 165.56043 | 36763 ft | 569 kts | 82° |
| 2026-04-30 09:26 | 43.67796 | 165.66815 | 36758 ft | 569 kts | 82° |
| 2026-04-30 09:26 | 43.68807 | 165.77663 | 36757 ft | 569 kts | 82° |
| 2026-04-30 09:27 | 43.69809 | 165.88514 | 36750 ft | 570 kts | 83° |
| 2026-04-30 09:27 | 43.70801 | 165.99386 | 36744 ft | 570 kts | 83° |
| 2026-04-30 09:28 | 43.71782 | 166.10248 | 36736 ft | 570 kts | 83° |
| 2026-04-30 09:28 | 43.72749 | 166.21075 | 36735 ft | 570 kts | 83° |
| 2026-04-30 09:29 | 43.73711 | 166.31964 | 36730 ft | 570 kts | 83° |
| 2026-04-30 09:29 | 43.74663 | 166.42856 | 36719 ft | 570 kts | 83° |
| 2026-04-30 09:30 | 43.75606 | 166.53765 | 36718 ft | 571 kts | 83° |
| 2026-04-30 09:30 | 43.76538 | 166.64678 | 36713 ft | 571 kts | 83° |
| 2026-04-30 09:31 | 43.77459 | 166.75592 | 36711 ft | 571 kts | 83° |
| 2026-04-30 09:31 | 43.78372 | 166.86525 | 36703 ft | 571 kts | 83° |
| 2026-04-30 09:32 | 43.79268 | 166.97382 | 36698 ft | 572 kts | 84° |
| 2026-04-30 09:32 | 43.80160 | 167.08332 | 36703 ft | 572 kts | 84° |
| 2026-04-30 09:33 | 43.81042 | 167.19282 | 36698 ft | 572 kts | 84° |
| 2026-04-30 09:33 | 43.81915 | 167.30248 | 36698 ft | 573 kts | 84° |
| 2026-04-30 09:34 | 43.82776 | 167.41210 | 36693 ft | 573 kts | 84° |
| 2026-04-30 09:34 | 43.83628 | 167.52194 | 36686 ft | 573 kts | 84° |
| 2026-04-30 09:35 | 43.84470 | 167.63182 | 36687 ft | 573 kts | 84° |
| 2026-04-30 09:35 | 43.85301 | 167.74166 | 36679 ft | 573 kts | 84° |
| 2026-04-30 09:36 | 43.86121 | 167.85153 | 36681 ft | 573 kts | 84° |
| 2026-04-30 09:36 | 43.86931 | 167.96141 | 36668 ft | 573 kts | 85° |
| 2026-04-30 09:37 | 43.87726 | 168.07068 | 36677 ft | 574 kts | 85° |
| 2026-04-30 09:37 | 43.88515 | 168.18077 | 36674 ft | 574 kts | 85° |
| 2026-04-30 09:38 | 43.89294 | 168.29090 | 36672 ft | 574 kts | 85° |
| 2026-04-30 09:38 | 43.90065 | 168.40126 | 36670 ft | 574 kts | 85° |
| 2026-04-30 09:39 | 43.90823 | 168.51152 | 36672 ft | 574 kts | 85° |
| 2026-04-30 09:39 | 43.91571 | 168.62184 | 36671 ft | 574 kts | 85° |
| 2026-04-30 09:40 | 43.92309 | 168.73218 | 36661 ft | 574 kts | 85° |
| 2026-04-30 09:40 | 43.93037 | 168.84273 | 36664 ft | 575 kts | 86° |
| 2026-04-30 09:41 | 43.93754 | 168.95323 | 36664 ft | 575 kts | 86° |
| 2026-04-30 09:41 | 43.94456 | 169.06311 | 36665 ft | 575 kts | 86° |
| 2026-04-30 09:42 | 43.95152 | 169.17376 | 36661 ft | 575 kts | 86° |
| 2026-04-30 09:42 | 43.95840 | 169.28477 | 36661 ft | 575 kts | 86° |
| 2026-04-30 09:43 | 43.96515 | 169.39554 | 36668 ft | 575 kts | 86° |
| 2026-04-30 09:43 | 43.97175 | 169.50549 | 36667 ft | 575 kts | 86° |
| 2026-04-30 09:44 | 43.97829 | 169.61633 | 36670 ft | 576 kts | 86° |
| 2026-04-30 09:44 | 43.98472 | 169.72722 | 36669 ft | 576 kts | 86° |
| 2026-04-30 09:45 | 43.99105 | 169.83801 | 36660 ft | 576 kts | 87° |
| 2026-04-30 09:45 | 43.99728 | 169.94918 | 36667 ft | 576 kts | 87° |
| 2026-04-30 09:46 | 44.00317 | 170.05955 | 36667 ft | 576 kts | 88° |
| 2026-04-30 09:46 | 44.00786 | 170.17090 | 36660 ft | 576 kts | 88° |
| 2026-04-30 09:47 | 44.01220 | 170.28229 | 36666 ft | 576 kts | 89° |
| 2026-04-30 09:47 | 44.01657 | 170.39281 | 36628 ft | 576 kts | 89° |
| 2026-04-30 09:48 | 44.02099 | 170.50445 | 36667 ft | 579 kts | 89° |
| 2026-04-30 09:48 | 44.02536 | 170.61656 | 36666 ft | 581 kts | 89° |
| 2026-04-30 09:49 | 44.02961 | 170.72866 | 36666 ft | 581 kts | 89° |
| 2026-04-30 09:49 | 44.03375 | 170.84078 | 36667 ft | 581 kts | 89° |
| 2026-04-30 09:50 | 44.03777 | 170.95289 | 36669 ft | 581 kts | 89° |
| 2026-04-30 09:50 | 44.04166 | 171.06447 | 36667 ft | 581 kts | 89° |
| 2026-04-30 09:51 | 44.04546 | 171.17678 | 36667 ft | 581 kts | 89° |
| 2026-04-30 09:51 | 44.04915 | 171.28899 | 36667 ft | 581 kts | 90° |
| 2026-04-30 09:52 | 44.05274 | 171.40136 | 36670 ft | 581 kts | 90° |
| 2026-04-30 09:52 | 44.05564 | 171.49472 | 36670 ft | 581 kts | 90° |
| 2026-04-30 09:53 | 44.05902 | 171.60701 | 36670 ft | 581 kts | 90° |
| 2026-04-30 09:53 | 44.06281 | 171.73762 | 36670 ft | 582 kts | 90° |
| 2026-04-30 09:54 | 44.06546 | 171.83204 | 36667 ft | 582 kts | 90° |
| 2026-04-30 09:54 | 44.06852 | 171.94456 | 36666 ft | 582 kts | 90° |
| 2026-04-30 09:55 | 44.07145 | 172.05659 | 36656 ft | 582 kts | 91° |
| 2026-04-30 09:55 | 44.07429 | 172.16923 | 36669 ft | 583 kts | 91° |
| 2026-04-30 09:56 | 44.07702 | 172.28206 | 36664 ft | 583 kts | 91° |
| 2026-04-30 09:56 | 44.07964 | 172.39490 | 36660 ft | 583 kts | 91° |
| 2026-04-30 09:57 | 44.08216 | 172.50780 | 36653 ft | 584 kts | 91° |
| 2026-04-30 09:57 | 44.08456 | 172.62092 | 36662 ft | 585 kts | 91° |
| 2026-04-30 09:58 | 44.08684 | 172.73399 | 36665 ft | 585 kts | 91° |
| 2026-04-30 09:58 | 44.08903 | 172.84719 | 36667 ft | 585 kts | 92° |
| 2026-04-30 09:59 | 44.09305 | 173.07257 | 36662 ft | 585 kts | 92° |
| 2026-04-30 10:00 | 44.09578 | 173.24229 | 36660 ft | 585 kts | 92° |
| 2026-04-30 10:01 | 44.09825 | 173.41237 | 36661 ft | 585 kts | 92° |
| 2026-04-30 10:02 | 44.10048 | 173.58220 | 36658 ft | 585 kts | 93° |
| 2026-04-30 10:02 | 44.10183 | 173.69545 | 36661 ft | 586 kts | 93° |
| 2026-04-30 10:03 | 44.10306 | 173.80877 | 36660 ft | 586 kts | 93° |
| 2026-04-30 10:03 | 44.10418 | 173.92211 | 36637 ft | 586 kts | 93° |
| 2026-04-30 10:04 | 44.10519 | 174.03548 | 36658 ft | 586 kts | 93° |
| 2026-04-30 10:04 | 44.10608 | 174.14834 | 36655 ft | 586 kts | 94° |
| 2026-04-30 10:05 | 44.10687 | 174.26178 | 36654 ft | 586 kts | 94° |
| 2026-04-30 10:05 | 44.10755 | 174.37535 | 36647 ft | 587 kts | 94° |
| 2026-04-30 10:06 | 44.10811 | 174.48907 | 36646 ft | 587 kts | 94° |
| 2026-04-30 10:06 | 44.10856 | 174.60265 | 36647 ft | 587 kts | 94° |
| 2026-04-30 10:07 | 44.10890 | 174.71629 | 36642 ft | 587 kts | 94° |
| 2026-04-30 10:07 | 44.10912 | 174.82993 | 36618 ft | 588 kts | 94° |
| 2026-04-30 10:08 | 44.10922 | 174.94390 | 36651 ft | 590 kts | 95° |
| 2026-04-30 10:08 | 44.10922 | 175.05821 | 36631 ft | 591 kts | 95° |
| 2026-04-30 10:09 | 44.10911 | 175.17264 | 36642 ft | 592 kts | 95° |
| 2026-04-30 10:09 | 44.10888 | 175.28725 | 36636 ft | 592 kts | 95° |
| 2026-04-30 10:10 | 44.10854 | 175.40104 | 36638 ft | 592 kts | 95° |
| 2026-04-30 10:10 | 44.10808 | 175.51559 | 36641 ft | 592 kts | 95° |
| 2026-04-30 10:11 | 44.10751 | 175.63027 | 36630 ft | 593 kts | 95° |
| 2026-04-30 10:11 | 44.10682 | 175.74496 | 36631 ft | 593 kts | 96° |
| 2026-04-30 10:12 | 44.10602 | 175.85963 | 36626 ft | 593 kts | 96° |
| 2026-04-30 10:12 | 44.10509 | 175.97470 | 36627 ft | 594 kts | 96° |
| 2026-04-30 10:13 | 44.10406 | 176.08986 | 36622 ft | 594 kts | 96° |
| 2026-04-30 10:13 | 44.10292 | 176.20414 | 36541 ft | 594 kts | 96° |
| 2026-04-30 10:14 | 44.10163 | 176.31960 | 36621 ft | 599 kts | 96° |
| 2026-04-30 10:14 | 44.09950 | 176.49365 | 36621 ft | 599 kts | 96° |
| 2026-04-30 10:15 | 44.09795 | 176.60958 | 36615 ft | 599 kts | 97° |
| 2026-04-30 10:15 | 44.09626 | 176.72553 | 36617 ft | 599 kts | 97° |
| 2026-04-30 10:16 | 44.09447 | 176.84067 | 36622 ft | 599 kts | 97° |
| 2026-04-30 10:17 | 44.09155 | 177.01448 | 36611 ft | 600 kts | 97° |
| 2026-04-30 10:17 | 44.08834 | 177.18883 | 36614 ft | 600 kts | 97° |
| 2026-04-30 10:18 | 44.08607 | 177.30483 | 36603 ft | 600 kts | 97° |
| 2026-04-30 10:19 | 44.08242 | 177.47866 | 36606 ft | 604 kts | 98° |
| 2026-04-30 10:19 | 44.07984 | 177.59544 | 36603 ft | 604 kts | 98° |
| 2026-04-30 10:20 | 44.07714 | 177.71228 | 36566 ft | 604 kts | 98° |
| 2026-04-30 10:20 | 44.07285 | 177.88787 | 36601 ft | 607 kts | 98° |
| 2026-04-30 10:21 | 44.06984 | 178.00518 | 36597 ft | 607 kts | 98° |
| 2026-04-30 10:21 | 44.06671 | 178.12235 | 36582 ft | 607 kts | 99° |
| 2026-04-30 10:22 | 44.06343 | 178.23990 | 36595 ft | 609 kts | 99° |
| 2026-04-30 10:22 | 44.06004 | 178.35763 | 36586 ft | 609 kts | 99° |
| 2026-04-30 10:23 | 44.05655 | 178.47485 | 36525 ft | 609 kts | 99° |
| 2026-04-30 10:23 | 44.05290 | 178.59282 | 36586 ft | 612 kts | 100° |
| 2026-04-30 10:24 | 44.04911 | 178.71128 | 36585 ft | 613 kts | 100° |
| 2026-04-30 10:24 | 44.04525 | 178.82898 | 36584 ft | 613 kts | 100° |
| 2026-04-30 10:25 | 44.04123 | 178.94751 | 36592 ft | 614 kts | 100° |
| 2026-04-30 10:25 | 44.03707 | 179.06621 | 36576 ft | 614 kts | 100° |
| 2026-04-30 10:26 | 44.03280 | 179.18486 | 36572 ft | 614 kts | 100° |
| 2026-04-30 10:26 | 44.02841 | 179.30337 | 36577 ft | 615 kts | 101° |
| 2026-04-30 10:27 | 44.02386 | 179.42223 | 36579 ft | 617 kts | 101° |
| 2026-04-30 10:27 | 44.01923 | 179.54042 | 36577 ft | 617 kts | 101° |
| 2026-04-30 10:28 | 44.01445 | 179.65939 | 36567 ft | 617 kts | 101° |
| 2026-04-30 10:28 | 44.00954 | 179.77860 | 36573 ft | 617 kts | 101° |
| 2026-04-30 10:29 | 44.00450 | 179.89772 | 36569 ft | 617 kts | 101° |
| 2026-04-30 10:29 | 43.99933 | -179.98324 | 36742 ft | 618 kts | 101° |
| 2026-04-30 10:30 | 43.99648 | -179.92467 | 37010 ft | 615 kts | 102° |
| 2026-04-30 10:30 | 43.99321 | -179.86559 | 37266 ft | 612 kts | 102° |
| 2026-04-30 10:30 | 43.98972 | -179.80651 | 37488 ft | 611 kts | 103° |
| 2026-04-30 10:30 | 43.98618 | -179.74775 | 37696 ft | 610 kts | 103° |
| 2026-04-30 10:31 | 43.98264 | -179.68900 | 37880 ft | 610 kts | 103° |
| 2026-04-30 10:31 | 43.97912 | -179.63033 | 38060 ft | 609 kts | 103° |
| 2026-04-30 10:31 | 43.97563 | -179.57172 | 38241 ft | 608 kts | 103° |
| 2026-04-30 10:31 | 43.97216 | -179.51322 | 38381 ft | 607 kts | 103° |
| 2026-04-30 10:32 | 43.96869 | -179.45487 | 38522 ft | 607 kts | 102° |
| 2026-04-30 10:32 | 43.96519 | -179.39647 | 38562 ft | 608 kts | 102° |
| 2026-04-30 10:32 | 43.95805 | -179.27932 | 38556 ft | 609 kts | 103° |
| 2026-04-30 10:33 | 43.95086 | -179.16309 | 38549 ft | 609 kts | 103° |
| 2026-04-30 10:33 | 43.94348 | -179.04606 | 38548 ft | 608 kts | 103° |
| 2026-04-30 10:34 | 43.93599 | -178.92914 | 38544 ft | 608 kts | 103° |
| 2026-04-30 10:34 | 43.92838 | -178.81229 | 38546 ft | 608 kts | 103° |
| 2026-04-30 10:35 | 43.92064 | -178.69536 | 38541 ft | 608 kts | 103° |
| 2026-04-30 10:35 | 43.91278 | -178.57845 | 38539 ft | 608 kts | 103° |
| 2026-04-30 10:36 | 43.90481 | -178.46160 | 38498 ft | 608 kts | 103° |
| 2026-04-30 10:36 | 43.89673 | -178.34491 | 38537 ft | 608 kts | 103° |
| 2026-04-30 10:37 | 43.88852 | -178.22818 | 38530 ft | 608 kts | 103° |
| 2026-04-30 10:37 | 43.88025 | -178.11228 | 38531 ft | 608 kts | 103° |
| 2026-04-30 10:38 | 43.87181 | -177.99568 | 38522 ft | 607 kts | 103° |
| 2026-04-30 10:38 | 43.86326 | -177.87913 | 38527 ft | 607 kts | 103° |
| 2026-04-30 10:39 | 43.85459 | -177.76274 | 38529 ft | 607 kts | 103° |
| 2026-04-30 10:39 | 43.84586 | -177.64711 | 38528 ft | 607 kts | 103° |
| 2026-04-30 10:40 | 43.83845 | -177.55012 | 38527 ft | 607 kts | 103° |
| 2026-04-30 10:40 | 43.82945 | -177.43383 | 38529 ft | 607 kts | 103° |
| 2026-04-30 10:41 | 43.82033 | -177.31758 | 38492 ft | 606 kts | 103° |
| 2026-04-30 10:41 | 43.81117 | -177.20229 | 38526 ft | 606 kts | 103° |
| 2026-04-30 10:42 | 43.80184 | -177.08631 | 38520 ft | 606 kts | 103° |
| 2026-04-30 10:42 | 43.79239 | -176.97036 | 38520 ft | 606 kts | 103° |
| 2026-04-30 10:43 | 43.78283 | -176.85458 | 38516 ft | 605 kts | 103° |
| 2026-04-30 10:43 | 43.77317 | -176.73911 | 38517 ft | 604 kts | 103° |
| 2026-04-30 10:44 | 43.76339 | -176.62365 | 38520 ft | 604 kts | 103° |
| 2026-04-30 10:44 | 43.75350 | -176.50825 | 38515 ft | 604 kts | 103° |
| 2026-04-30 10:45 | 43.74359 | -176.39378 | 38521 ft | 604 kts | 103° |
| 2026-04-30 10:45 | 43.73348 | -176.27845 | 38519 ft | 604 kts | 103° |
| 2026-04-30 10:46 | 43.72326 | -176.16331 | 38504 ft | 603 kts | 104° |
| 2026-04-30 10:46 | 43.71295 | -176.04842 | 38518 ft | 601 kts | 104° |
| 2026-04-30 10:47 | 43.70254 | -175.93381 | 38525 ft | 601 kts | 104° |
| 2026-04-30 10:47 | 43.69201 | -175.81922 | 38518 ft | 601 kts | 104° |
| 2026-04-30 10:48 | 43.68137 | -175.70472 | 38529 ft | 600 kts | 104° |
| 2026-04-30 10:48 | 43.67070 | -175.59112 | 38526 ft | 600 kts | 104° |
| 2026-04-30 10:49 | 43.65984 | -175.47677 | 38528 ft | 600 kts | 105° |
| 2026-04-30 10:49 | 43.64887 | -175.36244 | 38519 ft | 600 kts | 104° |
| 2026-04-30 10:50 | 43.63781 | -175.24842 | 38532 ft | 599 kts | 105° |
| 2026-04-30 10:50 | 43.62665 | -175.13458 | 38531 ft | 598 kts | 105° |
| 2026-04-30 10:51 | 43.61537 | -175.02077 | 38521 ft | 598 kts | 105° |
| 2026-04-30 10:51 | 43.60404 | -174.90754 | 38539 ft | 598 kts | 105° |
| 2026-04-30 10:52 | 43.59254 | -174.79379 | 38542 ft | 598 kts | 105° |
| 2026-04-30 10:52 | 43.58099 | -174.68076 | 38542 ft | 597 kts | 105° |
| 2026-04-30 10:53 | 43.56928 | -174.56732 | 38547 ft | 597 kts | 104° |
| 2026-04-30 10:53 | 43.55747 | -174.45393 | 38553 ft | 597 kts | 105° |
| 2026-04-30 10:54 | 43.54555 | -174.34065 | 38558 ft | 597 kts | 105° |
| 2026-04-30 10:54 | 43.53351 | -174.22740 | 38553 ft | 596 kts | 104° |
| 2026-04-30 10:55 | 43.52138 | -174.11432 | 38558 ft | 596 kts | 104° |
| 2026-04-30 10:55 | 43.50922 | -174.00200 | 38565 ft | 596 kts | 105° |
| 2026-04-30 10:56 | 43.49687 | -173.88903 | 38548 ft | 596 kts | 104° |
| 2026-04-30 10:56 | 43.48442 | -173.77618 | 38570 ft | 596 kts | 104° |
| 2026-04-30 10:57 | 43.47186 | -173.66349 | 38573 ft | 595 kts | 104° |
| 2026-04-30 10:57 | 43.45919 | -173.55080 | 38581 ft | 595 kts | 104° |
| 2026-04-30 10:58 | 43.44651 | -173.43898 | 38583 ft | 595 kts | 104° |
| 2026-04-30 10:58 | 43.43362 | -173.32650 | 38575 ft | 594 kts | 104° |
| 2026-04-30 10:59 | 43.42066 | -173.21421 | 38588 ft | 593 kts | 104° |
| 2026-04-30 10:59 | 43.40759 | -173.10205 | 38600 ft | 593 kts | 103° |
| 2026-04-30 11:00 | 43.39442 | -172.99004 | 38605 ft | 593 kts | 103° |
| 2026-04-30 11:00 | 43.38124 | -172.87886 | 38606 ft | 593 kts | 103° |
| 2026-04-30 11:01 | 43.36786 | -172.76711 | 38591 ft | 592 kts | 103° |
| 2026-04-30 11:01 | 43.35437 | -172.65534 | 38619 ft | 592 kts | 103° |
| 2026-04-30 11:02 | 43.34077 | -172.54352 | 38623 ft | 592 kts | 103° |
| 2026-04-30 11:02 | 43.32707 | -172.43178 | 38623 ft | 592 kts | 103° |
| 2026-04-30 11:03 | 43.31325 | -172.32018 | 38633 ft | 593 kts | 103° |
| 2026-04-30 11:04 | 43.29234 | -172.15286 | 38629 ft | 593 kts | 103° |
| 2026-04-30 11:04 | 43.27826 | -172.04139 | 38639 ft | 593 kts | 103° |
| 2026-04-30 11:05 | 43.26415 | -171.93053 | 38644 ft | 593 kts | 103° |
| 2026-04-30 11:05 | 43.24985 | -171.81914 | 38644 ft | 593 kts | 104° |
| 2026-04-30 11:06 | 43.23542 | -171.70760 | 38652 ft | 593 kts | 104° |
| 2026-04-30 11:06 | 43.22091 | -171.59635 | 38656 ft | 593 kts | 103° |
| 2026-04-30 11:07 | 43.20630 | -171.48514 | 38664 ft | 593 kts | 103° |
| 2026-04-30 11:07 | 43.19157 | -171.37394 | 38661 ft | 593 kts | 104° |
| 2026-04-30 11:08 | 43.17674 | -171.26286 | 38662 ft | 592 kts | 103° |
| 2026-04-30 11:08 | 43.16179 | -171.15177 | 38680 ft | 592 kts | 104° |
| 2026-04-30 11:09 | 43.14685 | -171.04153 | 38686 ft | 592 kts | 104° |
| 2026-04-30 11:09 | 43.13171 | -170.93068 | 38686 ft | 592 kts | 104° |
| 2026-04-30 11:10 | 43.11647 | -170.81994 | 38690 ft | 591 kts | 104° |
| 2026-04-30 11:10 | 43.10112 | -170.70923 | 38698 ft | 591 kts | 104° |
| 2026-04-30 11:11 | 43.08570 | -170.59888 | 38703 ft | 591 kts | 104° |
| 2026-04-30 11:11 | 43.07016 | -170.48847 | 38702 ft | 591 kts | 104° |
| 2026-04-30 11:12 | 43.05463 | -170.37893 | 38710 ft | 590 kts | 104° |
| 2026-04-30 11:12 | 43.03889 | -170.26866 | 38716 ft | 590 kts | 104° |
| 2026-04-30 11:13 | 43.02307 | -170.15868 | 38701 ft | 590 kts | 104° |
| 2026-04-30 11:13 | 43.00719 | -170.04865 | 38722 ft | 590 kts | 103° |
| 2026-04-30 11:13 | 43.00268 | -169.99287 | 38736 ft | 592 kts | 91° |
| 2026-04-30 11:14 | 43.00294 | -169.93675 | 38734 ft | 591 kts | 88° |
| 2026-04-30 11:14 | 43.00664 | -169.82483 | 38743 ft | 592 kts | 86° |
| 2026-04-30 11:15 | 43.01179 | -169.71250 | 38741 ft | 592 kts | 85° |
| 2026-04-30 11:15 | 43.01678 | -169.60022 | 38743 ft | 592 kts | 86° |
| 2026-04-30 11:16 | 43.02135 | -169.48787 | 38757 ft | 592 kts | 86° |
| 2026-04-30 11:16 | 43.02567 | -169.37553 | 38754 ft | 592 kts | 86° |
| 2026-04-30 11:17 | 43.02984 | -169.26394 | 38762 ft | 591 kts | 86° |
| 2026-04-30 11:17 | 43.03395 | -169.15182 | 38762 ft | 591 kts | 86° |
| 2026-04-30 11:18 | 43.03796 | -169.03955 | 38766 ft | 590 kts | 86° |
| 2026-04-30 11:18 | 43.04376 | -168.87139 | 38773 ft | 590 kts | 86° |
| 2026-04-30 11:19 | 43.04749 | -168.75925 | 38771 ft | 590 kts | 86° |
| 2026-04-30 11:19 | 43.05109 | -168.64784 | 38772 ft | 590 kts | 86° |
| 2026-04-30 11:20 | 43.05459 | -168.53577 | 38781 ft | 589 kts | 86° |
| 2026-04-30 11:20 | 43.05800 | -168.42379 | 38774 ft | 590 kts | 86° |
| 2026-04-30 11:21 | 43.06130 | -168.31136 | 38789 ft | 591 kts | 86° |
| 2026-04-30 11:21 | 43.06449 | -168.19896 | 38793 ft | 591 kts | 86° |
| 2026-04-30 11:22 | 43.06754 | -168.08728 | 38797 ft | 591 kts | 86° |
| 2026-04-30 11:22 | 43.07051 | -167.97488 | 38794 ft | 591 kts | 87° |
| 2026-04-30 11:23 | 43.07337 | -167.86261 | 38797 ft | 591 kts | 86° |
| 2026-04-30 11:24 | 43.07743 | -167.69473 | 38807 ft | 590 kts | 86° |
| 2026-04-30 11:24 | 43.08001 | -167.58244 | 38803 ft | 590 kts | 86° |
| 2026-04-30 11:25 | 43.08367 | -167.41401 | 38819 ft | 589 kts | 86° |
| 2026-04-30 11:26 | 43.08816 | -167.19030 | 38827 ft | 589 kts | 86° |
| 2026-04-30 11:26 | 43.09024 | -167.07817 | 38839 ft | 589 kts | 86° |
| 2026-04-30 11:27 | 43.09222 | -166.96622 | 38837 ft | 589 kts | 86° |
| 2026-04-30 11:27 | 43.09409 | -166.85414 | 38838 ft | 590 kts | 86° |
| 2026-04-30 11:28 | 43.09667 | -166.68598 | 38841 ft | 589 kts | 86° |
| 2026-04-30 11:29 | 43.09826 | -166.57391 | 38846 ft | 589 kts | 87° |
| 2026-04-30 11:29 | 43.10043 | -166.40638 | 38855 ft | 589 kts | 86° |
| 2026-04-30 11:30 | 43.10237 | -166.23842 | 38863 ft | 588 kts | 86° |
| 2026-04-30 11:31 | 43.10352 | -166.12648 | 38866 ft | 588 kts | 86° |
| 2026-04-30 11:31 | 43.10456 | -166.01458 | 38871 ft | 588 kts | 86° |
| 2026-04-30 11:32 | 43.10535 | -165.92148 | 38875 ft | 587 kts | 86° |
| 2026-04-30 11:32 | 43.10632 | -165.79153 | 38881 ft | 587 kts | 87° |
| 2026-04-30 11:33 | 43.10724 | -165.64267 | 38886 ft | 587 kts | 86° |
| 2026-04-30 11:33 | 43.10781 | -165.53093 | 38923 ft | 587 kts | 87° |
| 2026-04-30 11:34 | 43.10828 | -165.41915 | 38903 ft | 588 kts | 87° |
| 2026-04-30 11:34 | 43.10863 | -165.30720 | 38906 ft | 588 kts | 87° |
| 2026-04-30 11:35 | 43.10887 | -165.19531 | 38903 ft | 587 kts | 87° |
| 2026-04-30 11:35 | 43.10901 | -165.08344 | 38913 ft | 587 kts | 87° |
| 2026-04-30 11:36 | 43.10903 | -164.97174 | 38917 ft | 587 kts | 87° |
| 2026-04-30 11:36 | 43.10895 | -164.85996 | 38916 ft | 587 kts | 87° |
| 2026-04-30 11:37 | 43.10876 | -164.74830 | 38922 ft | 587 kts | 87° |
| 2026-04-30 11:37 | 43.10847 | -164.63727 | 38927 ft | 587 kts | 87° |
| 2026-04-30 11:38 | 43.10806 | -164.52559 | 38924 ft | 587 kts | 87° |
| 2026-04-30 11:38 | 43.10754 | -164.41394 | 38931 ft | 587 kts | 87° |
| 2026-04-30 11:39 | 43.10691 | -164.30212 | 38943 ft | 587 kts | 87° |
| 2026-04-30 11:39 | 43.10618 | -164.19062 | 38945 ft | 586 kts | 87° |
| 2026-04-30 11:40 | 43.10534 | -164.07905 | 38946 ft | 586 kts | 87° |
| 2026-04-30 11:40 | 43.10439 | -163.96726 | 38944 ft | 587 kts | 87° |
| 2026-04-30 11:41 | 43.10333 | -163.85541 | 38953 ft | 587 kts | 88° |
| 2026-04-30 11:41 | 43.10216 | -163.74368 | 38957 ft | 587 kts | 88° |
| 2026-04-30 11:42 | 43.10089 | -163.63265 | 38961 ft | 587 kts | 88° |
| 2026-04-30 11:42 | 43.09950 | -163.52089 | 38963 ft | 587 kts | 88° |
| 2026-04-30 11:43 | 43.09801 | -163.40905 | 38964 ft | 587 kts | 88° |
| 2026-04-30 11:43 | 43.09641 | -163.29745 | 38949 ft | 587 kts | 88° |
| 2026-04-30 11:44 | 43.09471 | -163.18665 | 38979 ft | 585 kts | 88° |
| 2026-04-30 11:44 | 43.09289 | -163.07536 | 38988 ft | 585 kts | 88° |
| 2026-04-30 11:45 | 43.09098 | -162.96418 | 38981 ft | 585 kts | 88° |
| 2026-04-30 11:45 | 43.08895 | -162.85300 | 38986 ft | 584 kts | 88° |
| 2026-04-30 11:46 | 43.08682 | -162.74179 | 38992 ft | 584 kts | 88° |
| 2026-04-30 11:46 | 43.08460 | -162.63134 | 39001 ft | 584 kts | 88° |
| 2026-04-30 11:47 | 43.08225 | -162.52016 | 38996 ft | 584 kts | 88° |
| 2026-04-30 11:47 | 43.07979 | -162.40910 | 38999 ft | 584 kts | 88° |
| 2026-04-30 11:48 | 43.07723 | -162.29803 | 39003 ft | 584 kts | 88° |
| 2026-04-30 11:48 | 43.07456 | -162.18693 | 39012 ft | 583 kts | 88° |
| 2026-04-30 11:49 | 43.07178 | -162.07596 | 39017 ft | 583 kts | 88° |
| 2026-04-30 11:49 | 43.06892 | -161.96582 | 39027 ft | 583 kts | 88° |
| 2026-04-30 11:50 | 43.06594 | -161.85498 | 39022 ft | 582 kts | 88° |
| 2026-04-30 11:50 | 43.06285 | -161.74427 | 39016 ft | 582 kts | 88° |
| 2026-04-30 11:51 | 43.05966 | -161.63357 | 39037 ft | 582 kts | 88° |
| 2026-04-30 11:51 | 43.05636 | -161.52296 | 39034 ft | 582 kts | 88° |
| 2026-04-30 11:52 | 43.05295 | -161.41245 | 39040 ft | 581 kts | 89° |
| 2026-04-30 11:52 | 43.04944 | -161.30194 | 39041 ft | 581 kts | 89° |
| 2026-04-30 11:53 | 43.04583 | -161.19156 | 39061 ft | 581 kts | 89° |
| 2026-04-30 11:53 | 43.04212 | -161.08115 | 39048 ft | 582 kts | 89° |
| 2026-04-30 11:54 | 43.03828 | -160.97046 | 39050 ft | 582 kts | 89° |
| 2026-04-30 11:54 | 43.03434 | -160.85977 | 39052 ft | 582 kts | 89° |
| 2026-04-30 11:55 | 43.03031 | -160.74983 | 39056 ft | 582 kts | 89° |
| 2026-04-30 11:55 | 43.02616 | -160.63940 | 39062 ft | 582 kts | 89° |
| 2026-04-30 11:56 | 43.02191 | -160.52894 | 39061 ft | 582 kts | 89° |
| 2026-04-30 11:56 | 43.01755 | -160.41858 | 39070 ft | 581 kts | 89° |
| 2026-04-30 11:57 | 43.01309 | -160.30826 | 39072 ft | 581 kts | 89° |
| 2026-04-30 11:57 | 43.00852 | -160.19802 | 39084 ft | 581 kts | 89° |
| 2026-04-30 11:58 | 43.00388 | -160.08860 | 39080 ft | 580 kts | 89° |
| 2026-04-30 11:58 | 42.99910 | -159.97845 | 39080 ft | 580 kts | 89° |
| 2026-04-30 11:59 | 42.99322 | -159.86829 | 39086 ft | 581 kts | 90° |
| 2026-04-30 11:59 | 42.98664 | -159.75829 | 39107 ft | 581 kts | 90° |
| 2026-04-30 12:00 | 42.98007 | -159.64827 | 39100 ft | 582 kts | 90° |
| 2026-04-30 12:00 | 42.97359 | -159.53880 | 39100 ft | 582 kts | 90° |
| 2026-04-30 12:01 | 42.96700 | -159.42855 | 39099 ft | 582 kts | 90° |
| 2026-04-30 12:01 | 42.96032 | -159.31846 | 39102 ft | 581 kts | 90° |
| 2026-04-30 12:02 | 42.95353 | -159.20837 | 39110 ft | 581 kts | 90° |
| 2026-04-30 12:02 | 42.94668 | -159.09918 | 39116 ft | 580 kts | 90° |
| 2026-04-30 12:03 | 42.93614 | -158.93432 | 39125 ft | 580 kts | 91° |
| 2026-04-30 12:04 | 42.92898 | -158.82456 | 39124 ft | 580 kts | 91° |
| 2026-04-30 12:04 | 42.92175 | -158.71512 | 39133 ft | 579 kts | 91° |
| 2026-04-30 12:05 | 42.91444 | -158.60628 | 39132 ft | 579 kts | 91° |
| 2026-04-30 12:05 | 42.90700 | -158.49694 | 39137 ft | 579 kts | 91° |
| 2026-04-30 12:06 | 42.89945 | -158.38757 | 39144 ft | 578 kts | 91° |
| 2026-04-30 12:06 | 42.89181 | -158.27834 | 39151 ft | 578 kts | 91° |
| 2026-04-30 12:07 | 42.88404 | -158.16892 | 39150 ft | 579 kts | 90° |
| 2026-04-30 12:07 | 42.87617 | -158.05972 | 39153 ft | 578 kts | 90° |
| 2026-04-30 12:08 | 42.86826 | -157.95131 | 39153 ft | 578 kts | 91° |
| 2026-04-30 12:08 | 42.86020 | -157.84213 | 39159 ft | 578 kts | 91° |
| 2026-04-30 12:09 | 42.85203 | -157.73291 | 39168 ft | 578 kts | 91° |
| 2026-04-30 12:09 | 42.84376 | -157.62379 | 39164 ft | 578 kts | 91° |
| 2026-04-30 12:10 | 42.83543 | -157.51531 | 39172 ft | 579 kts | 91° |
| 2026-04-30 12:10 | 42.82696 | -157.40642 | 39175 ft | 578 kts | 91° |
| 2026-04-30 12:11 | 42.81840 | -157.29767 | 39181 ft | 577 kts | 91° |
| 2026-04-30 12:11 | 42.80976 | -157.18915 | 39181 ft | 577 kts | 91° |
| 2026-04-30 12:12 | 42.80100 | -157.08041 | 39190 ft | 577 kts | 91° |
| 2026-04-30 12:12 | 42.79215 | -156.97216 | 39194 ft | 575 kts | 91° |
| 2026-04-30 12:13 | 42.78322 | -156.86391 | 39198 ft | 575 kts | 91° |
| 2026-04-30 12:13 | 42.77418 | -156.75571 | 39199 ft | 575 kts | 91° |
| 2026-04-30 12:14 | 42.76504 | -156.64764 | 39205 ft | 574 kts | 91° |
| 2026-04-30 12:14 | 42.75587 | -156.54032 | 39214 ft | 574 kts | 91° |
| 2026-04-30 12:15 | 42.74654 | -156.43235 | 39217 ft | 574 kts | 91° |
| 2026-04-30 12:15 | 42.73712 | -156.32462 | 39223 ft | 573 kts | 91° |
| 2026-04-30 12:16 | 42.72759 | -156.21686 | 39226 ft | 572 kts | 91° |
| 2026-04-30 12:16 | 42.71804 | -156.10989 | 39235 ft | 573 kts | 91° |
| 2026-04-30 12:17 | 42.70344 | -155.94863 | 39243 ft | 571 kts | 91° |
| 2026-04-30 12:17 | 42.69361 | -155.84151 | 39246 ft | 571 kts | 91° |
| 2026-04-30 12:18 | 42.68368 | -155.73434 | 39254 ft | 571 kts | 91° |
| 2026-04-30 12:18 | 42.67535 | -155.64533 | 39255 ft | 570 kts | 91° |
| 2026-04-30 12:19 | 42.66526 | -155.53860 | 39259 ft | 569 kts | 91° |
| 2026-04-30 12:19 | 42.65509 | -155.43198 | 39267 ft | 569 kts | 91° |
| 2026-04-30 12:20 | 42.64483 | -155.32540 | 39288 ft | 569 kts | 91° |
| 2026-04-30 12:20 | 42.63446 | -155.21894 | 39273 ft | 567 kts | 91° |
| 2026-04-30 12:21 | 42.62411 | -155.11336 | 39279 ft | 567 kts | 91° |
| 2026-04-30 12:21 | 42.61359 | -155.00720 | 39287 ft | 567 kts | 91° |
| 2026-04-30 12:22 | 42.60296 | -154.90111 | 39287 ft | 566 kts | 91° |
| 2026-04-30 12:22 | 42.59223 | -154.79512 | 39289 ft | 566 kts | 91° |
| 2026-04-30 12:23 | 42.58150 | -154.68996 | 39295 ft | 566 kts | 91° |
| 2026-04-30 12:23 | 42.57060 | -154.58416 | 39298 ft | 565 kts | 91° |
| 2026-04-30 12:24 | 42.55962 | -154.47877 | 39298 ft | 564 kts | 91° |
| 2026-04-30 12:24 | 42.54856 | -154.37338 | 39298 ft | 564 kts | 91° |
| 2026-04-30 12:25 | 42.53744 | -154.26824 | 39306 ft | 564 kts | 91° |
| 2026-04-30 12:25 | 42.52619 | -154.16296 | 39311 ft | 564 kts | 92° |
| 2026-04-30 12:26 | 42.51485 | -154.05774 | 39308 ft | 564 kts | 92° |
| 2026-04-30 12:26 | 42.50341 | -153.95259 | 39314 ft | 564 kts | 92° |
| 2026-04-30 12:27 | 42.49186 | -153.84746 | 39341 ft | 563 kts | 92° |
| 2026-04-30 12:27 | 42.48032 | -153.74324 | 39329 ft | 563 kts | 92° |
| 2026-04-30 12:28 | 42.46859 | -153.63824 | 39317 ft | 563 kts | 92° |
| 2026-04-30 12:28 | 42.45680 | -153.53349 | 39318 ft | 563 kts | 92° |
| 2026-04-30 12:29 | 42.44490 | -153.42876 | 39338 ft | 562 kts | 92° |
| 2026-04-30 12:29 | 42.43294 | -153.32427 | 39344 ft | 562 kts | 92° |
| 2026-04-30 12:30 | 42.42087 | -153.21974 | 39329 ft | 562 kts | 92° |
| 2026-04-30 12:30 | 42.40871 | -153.11523 | 39353 ft | 561 kts | 92° |
| 2026-04-30 12:31 | 42.39647 | -153.01099 | 39336 ft | 561 kts | 92° |
| 2026-04-30 12:31 | 42.38413 | -152.90667 | 39348 ft | 561 kts | 92° |
| 2026-04-30 12:32 | 42.37179 | -152.80319 | 39357 ft | 560 kts | 92° |
| 2026-04-30 12:32 | 42.35930 | -152.69923 | 39350 ft | 560 kts | 92° |
| 2026-04-30 12:33 | 42.34671 | -152.59535 | 39352 ft | 560 kts | 92° |
| 2026-04-30 12:33 | 42.33401 | -152.49135 | 39372 ft | 560 kts | 93° |
| 2026-04-30 12:34 | 42.32126 | -152.38770 | 39367 ft | 559 kts | 93° |
| 2026-04-30 12:34 | 42.30841 | -152.28402 | 39377 ft | 559 kts | 93° |
| 2026-04-30 12:35 | 42.29548 | -152.18057 | 39375 ft | 559 kts | 93° |
| 2026-04-30 12:35 | 42.28244 | -152.07703 | 39378 ft | 558 kts | 94° |
| 2026-04-30 12:36 | 42.26933 | -151.97373 | 39375 ft | 557 kts | 94° |
| 2026-04-30 12:36 | 42.25623 | -151.87119 | 39385 ft | 557 kts | 94° |
| 2026-04-30 12:37 | 42.24297 | -151.76816 | 39394 ft | 557 kts | 94° |
| 2026-04-30 12:37 | 42.22962 | -151.66533 | 39395 ft | 556 kts | 94° |
| 2026-04-30 12:38 | 42.21621 | -151.56261 | 39393 ft | 556 kts | 94° |
| 2026-04-30 12:38 | 42.20270 | -151.45995 | 39406 ft | 556 kts | 95° |
| 2026-04-30 12:39 | 42.18912 | -151.35756 | 39404 ft | 554 kts | 95° |
| 2026-04-30 12:39 | 42.17547 | -151.25525 | 39406 ft | 554 kts | 95° |
| 2026-04-30 12:40 | 42.16173 | -151.15304 | 39410 ft | 554 kts | 95° |
| 2026-04-30 12:40 | 42.14792 | -151.05097 | 39415 ft | 552 kts | 95° |
| 2026-04-30 12:41 | 42.13414 | -150.94987 | 39417 ft | 551 kts | 96° |
| 2026-04-30 12:41 | 42.12018 | -150.84820 | 39415 ft | 550 kts | 96° |
| 2026-04-30 12:42 | 42.10618 | -150.74684 | 39420 ft | 550 kts | 96° |
| 2026-04-30 12:42 | 42.09206 | -150.64536 | 39422 ft | 550 kts | 96° |
| 2026-04-30 12:43 | 42.07796 | -150.54473 | 39424 ft | 551 kts | 96° |
| 2026-04-30 12:43 | 42.06366 | -150.44335 | 39425 ft | 551 kts | 96° |
| 2026-04-30 12:44 | 42.04932 | -150.34231 | 39430 ft | 548 kts | 97° |
| 2026-04-30 12:44 | 42.03494 | -150.24173 | 39430 ft | 547 kts | 97° |
| 2026-04-30 12:45 | 42.02047 | -150.14113 | 39436 ft | 547 kts | 97° |
| 2026-04-30 12:45 | 42.00594 | -150.04073 | 39435 ft | 546 kts | 97° |
| 2026-04-30 12:46 | 41.99670 | -149.94018 | 39441 ft | 540 kts | 90° |
| 2026-04-30 12:46 | 41.99071 | -149.84020 | 39443 ft | 539 kts | 90° |
| 2026-04-30 12:47 | 41.98513 | -149.73968 | 39450 ft | 539 kts | 90° |
| 2026-04-30 12:47 | 41.97945 | -149.63970 | 39442 ft | 534 kts | 91° |
| 2026-04-30 12:48 | 41.97362 | -149.54035 | 39445 ft | 533 kts | 91° |
| 2026-04-30 12:48 | 41.96768 | -149.44120 | 39444 ft | 532 kts | 91° |
| 2026-04-30 12:49 | 41.96165 | -149.34190 | 39446 ft | 532 kts | 91° |
| 2026-04-30 12:49 | 41.95558 | -149.24357 | 39449 ft | 530 kts | 92° |
| 2026-04-30 12:50 | 41.94940 | -149.14482 | 39452 ft | 530 kts | 92° |
| 2026-04-30 12:50 | 41.94314 | -149.04616 | 39454 ft | 530 kts | 92° |
| 2026-04-30 12:51 | 41.93681 | -148.94756 | 39454 ft | 529 kts | 92° |
| 2026-04-30 12:51 | 41.93039 | -148.84900 | 39455 ft | 527 kts | 93° |
| 2026-04-30 12:52 | 41.92395 | -148.75155 | 39454 ft | 527 kts | 93° |
| 2026-04-30 12:52 | 41.91740 | -148.65348 | 39457 ft | 527 kts | 93° |
| 2026-04-30 12:53 | 41.91076 | -148.55545 | 39457 ft | 526 kts | 94° |
| 2026-04-30 12:53 | 41.90403 | -148.45745 | 39457 ft | 526 kts | 94° |
| 2026-04-30 12:54 | 41.89724 | -148.35970 | 39454 ft | 526 kts | 94° |
| 2026-04-30 12:54 | 41.89037 | -148.26190 | 39454 ft | 526 kts | 94° |
| 2026-04-30 12:55 | 41.88341 | -148.16412 | 39454 ft | 526 kts | 95° |
| 2026-04-30 12:55 | 41.87636 | -148.06634 | 39480 ft | 526 kts | 95° |
| 2026-04-30 12:56 | 41.86928 | -147.96912 | 39460 ft | 527 kts | 95° |
| 2026-04-30 12:56 | 41.86205 | -147.87115 | 39455 ft | 527 kts | 95° |
| 2026-04-30 12:57 | 41.85474 | -147.77324 | 39463 ft | 527 kts | 95° |
| 2026-04-30 12:57 | 41.84733 | -147.67513 | 39463 ft | 527 kts | 96° |
| 2026-04-30 12:58 | 41.83990 | -147.57788 | 39462 ft | 527 kts | 96° |
| 2026-04-30 12:58 | 41.83234 | -147.48003 | 39459 ft | 527 kts | 96° |
| 2026-04-30 12:59 | 41.82469 | -147.38208 | 39463 ft | 528 kts | 96° |
| 2026-04-30 12:59 | 41.81696 | -147.28418 | 39463 ft | 528 kts | 96° |
| 2026-04-30 13:00 | 41.80912 | -147.18617 | 39470 ft | 528 kts | 96° |
| 2026-04-30 13:00 | 41.80121 | -147.08808 | 39465 ft | 529 kts | 96° |
| 2026-04-30 13:01 | 41.79326 | -146.99059 | 39461 ft | 529 kts | 96° |
| 2026-04-30 13:01 | 41.78517 | -146.89251 | 39465 ft | 529 kts | 97° |
| 2026-04-30 13:02 | 41.77701 | -146.79458 | 39464 ft | 529 kts | 97° |
| 2026-04-30 13:02 | 41.76883 | -146.69732 | 39463 ft | 529 kts | 97° |
| 2026-04-30 13:03 | 41.76050 | -146.59941 | 39459 ft | 529 kts | 97° |
| 2026-04-30 13:03 | 41.75208 | -146.50145 | 39460 ft | 529 kts | 97° |
| 2026-04-30 13:04 | 41.74358 | -146.40362 | 39449 ft | 529 kts | 97° |
| 2026-04-30 13:04 | 41.73646 | -146.32224 | 39455 ft | 529 kts | 97° |
| 2026-04-30 13:05 | 41.72780 | -146.22434 | 39453 ft | 529 kts | 97° |
| 2026-04-30 13:06 | 41.71466 | -146.07755 | 39453 ft | 529 kts | 97° |
| 2026-04-30 13:06 | 41.70580 | -145.97971 | 39451 ft | 529 kts | 97° |
| 2026-04-30 13:07 | 41.69691 | -145.88248 | 39452 ft | 529 kts | 97° |
| 2026-04-30 13:07 | 41.68789 | -145.78481 | 39452 ft | 529 kts | 97° |
| 2026-04-30 13:08 | 41.67878 | -145.68709 | 39449 ft | 529 kts | 97° |
| 2026-04-30 13:08 | 41.66962 | -145.58970 | 39443 ft | 527 kts | 98° |
| 2026-04-30 13:09 | 41.66039 | -145.49244 | 39447 ft | 527 kts | 98° |
| 2026-04-30 13:09 | 41.65107 | -145.39522 | 39441 ft | 527 kts | 98° |
| 2026-04-30 13:10 | 41.64173 | -145.29862 | 39440 ft | 526 kts | 98° |
| 2026-04-30 13:10 | 41.63229 | -145.20171 | 39444 ft | 525 kts | 98° |
| 2026-04-30 13:11 | 41.62276 | -145.10495 | 39438 ft | 525 kts | 98° |
| 2026-04-30 13:11 | 41.61316 | -145.00825 | 39433 ft | 525 kts | 98° |
| 2026-04-30 13:12 | 41.60348 | -144.91155 | 39430 ft | 524 kts | 99° |
| 2026-04-30 13:12 | 41.59373 | -144.81503 | 39427 ft | 524 kts | 99° |
| 2026-04-30 13:13 | 41.57903 | -144.67109 | 39426 ft | 523 kts | 99° |
| 2026-04-30 13:14 | 41.56410 | -144.52669 | 39427 ft | 523 kts | 99° |
| 2026-04-30 13:14 | 41.54899 | -144.38240 | 39418 ft | 523 kts | 99° |
| 2026-04-30 13:15 | 41.53376 | -144.23871 | 39417 ft | 523 kts | 99° |
| 2026-04-30 13:16 | 41.52349 | -144.14269 | 39414 ft | 522 kts | 100° |
| 2026-04-30 13:16 | 41.51312 | -144.04668 | 39414 ft | 522 kts | 100° |
| 2026-04-30 13:17 | 41.49742 | -143.90265 | 39412 ft | 522 kts | 100° |
| 2026-04-30 13:18 | 41.48164 | -143.75958 | 39411 ft | 522 kts | 101° |
| 2026-04-30 13:18 | 41.46558 | -143.61574 | 39408 ft | 522 kts | 101° |
| 2026-04-30 13:19 | 41.45478 | -143.51987 | 39407 ft | 522 kts | 101° |
| 2026-04-30 13:19 | 41.44396 | -143.42463 | 39401 ft | 522 kts | 101° |
| 2026-04-30 13:20 | 41.43300 | -143.32886 | 39399 ft | 522 kts | 101° |
| 2026-04-30 13:20 | 41.42198 | -143.23324 | 39403 ft | 522 kts | 101° |
| 2026-04-30 13:21 | 41.41088 | -143.13769 | 39379 ft | 522 kts | 102° |
| 2026-04-30 13:22 | 41.39405 | -142.99413 | 39392 ft | 522 kts | 102° |
| 2026-04-30 13:22 | 41.37704 | -142.85062 | 39385 ft | 522 kts | 102° |
| 2026-04-30 13:23 | 41.35993 | -142.70787 | 39382 ft | 522 kts | 103° |
| 2026-04-30 13:24 | 41.33678 | -142.51717 | 39377 ft | 522 kts | 103° |
| 2026-04-30 13:25 | 41.31341 | -142.32719 | 39373 ft | 520 kts | 103° |
| 2026-04-30 13:26 | 41.28370 | -142.08973 | 39361 ft | 521 kts | 103° |
| 2026-04-30 13:28 | 41.25356 | -141.85279 | 39361 ft | 519 kts | 104° |
| 2026-04-30 13:28 | 41.23526 | -141.71091 | 39340 ft | 519 kts | 104° |
| 2026-04-30 13:29 | 41.21062 | -141.52209 | 39354 ft | 518 kts | 105° |
| 2026-04-30 13:31 | 41.17946 | -141.28683 | 39346 ft | 519 kts | 105° |
| 2026-04-30 13:32 | 41.14770 | -141.05075 | 39346 ft | 519 kts | 105° |
| 2026-04-30 13:33 | 41.12196 | -140.86228 | 39338 ft | 521 kts | 105° |
| 2026-04-30 13:34 | 41.10240 | -140.72059 | 39333 ft | 521 kts | 105° |
| 2026-04-30 13:35 | 41.07600 | -140.53152 | 39334 ft | 523 kts | 106° |
| 2026-04-30 13:36 | 41.04923 | -140.34203 | 39331 ft | 523 kts | 106° |
| 2026-04-30 13:36 | 41.02901 | -140.20059 | 39331 ft | 524 kts | 106° |
| 2026-04-30 13:37 | 41.00847 | -140.05812 | 39329 ft | 525 kts | 106° |
| 2026-04-30 13:38 | 40.99464 | -139.96318 | 39588 ft | 524 kts | 106° |
| 2026-04-30 13:38 | 40.98750 | -139.91587 | 39777 ft | 523 kts | 107° |
| 2026-04-30 13:38 | 40.97295 | -139.82157 | 40092 ft | 522 kts | 107° |
| 2026-04-30 13:39 | 40.95838 | -139.72775 | 40373 ft | 522 kts | 106° |
| 2026-04-30 13:39 | 40.94376 | -139.63360 | 40670 ft | 522 kts | 106° |
| 2026-04-30 13:40 | 40.93643 | -139.58649 | 40703 ft | 523 kts | 106° |
| 2026-04-30 13:40 | 40.92165 | -139.49188 | 40928 ft | 524 kts | 106° |
| 2026-04-30 13:40 | 40.91427 | -139.44476 | 41078 ft | 523 kts | 106° |
| 2026-04-30 13:41 | 40.90696 | -139.39825 | 41215 ft | 522 kts | 106° |
| 2026-04-30 13:41 | 40.89208 | -139.30402 | 41317 ft | 525 kts | 106° |
| 2026-04-30 13:42 | 40.87705 | -139.20942 | 41309 ft | 525 kts | 106° |
| 2026-04-30 13:42 | 40.85447 | -139.06817 | 41308 ft | 525 kts | 106° |
| 2026-04-30 13:43 | 40.83927 | -138.97378 | 41304 ft | 525 kts | 106° |
| 2026-04-30 13:43 | 40.82397 | -138.87934 | 41303 ft | 525 kts | 106° |
| 2026-04-30 13:44 | 40.80860 | -138.78492 | 41305 ft | 525 kts | 106° |
| 2026-04-30 13:44 | 40.79317 | -138.69066 | 41306 ft | 525 kts | 107° |
| 2026-04-30 13:45 | 40.76990 | -138.54949 | 41299 ft | 525 kts | 107° |
| 2026-04-30 13:46 | 40.75429 | -138.45537 | 41301 ft | 525 kts | 107° |
| 2026-04-30 13:46 | 40.73870 | -138.36196 | 41306 ft | 524 kts | 107° |
| 2026-04-30 13:47 | 40.72292 | -138.26784 | 41305 ft | 524 kts | 107° |
| 2026-04-30 13:47 | 40.70710 | -138.17402 | 41305 ft | 524 kts | 107° |
| 2026-04-30 13:48 | 40.69118 | -138.08009 | 41306 ft | 524 kts | 107° |
| 2026-04-30 13:48 | 40.67520 | -137.98633 | 41306 ft | 524 kts | 107° |
| 2026-04-30 13:49 | 40.65926 | -137.89327 | 41302 ft | 524 kts | 107° |
| 2026-04-30 13:49 | 40.64313 | -137.79959 | 41311 ft | 524 kts | 107° |
| 2026-04-30 13:50 | 40.62692 | -137.70588 | 41312 ft | 524 kts | 107° |
| 2026-04-30 13:50 | 40.60247 | -137.56551 | 41311 ft | 524 kts | 107° |
| 2026-04-30 13:51 | 40.58606 | -137.47191 | 41320 ft | 524 kts | 107° |
| 2026-04-30 13:51 | 40.56971 | -137.37908 | 41322 ft | 525 kts | 107° |
| 2026-04-30 13:52 | 40.55316 | -137.28560 | 41324 ft | 525 kts | 107° |
| 2026-04-30 13:52 | 40.53650 | -137.19201 | 41322 ft | 525 kts | 107° |
| 2026-04-30 13:53 | 40.51978 | -137.09851 | 41329 ft | 525 kts | 107° |
| 2026-04-30 13:53 | 40.50581 | -137.02075 | 41332 ft | 525 kts | 107° |
| 2026-04-30 13:54 | 40.48622 | -136.91227 | 41318 ft | 525 kts | 107° |
| 2026-04-30 13:54 | 40.46927 | -136.81891 | 41328 ft | 526 kts | 108° |
| 2026-04-30 13:55 | 40.45510 | -136.74122 | 41329 ft | 526 kts | 108° |
| 2026-04-30 13:55 | 40.43801 | -136.64791 | 41340 ft | 526 kts | 108° |
| 2026-04-30 13:56 | 40.42082 | -136.55450 | 41338 ft | 526 kts | 108° |
| 2026-04-30 13:56 | 40.40357 | -136.46123 | 41342 ft | 526 kts | 108° |
| 2026-04-30 13:57 | 40.38625 | -136.36807 | 41345 ft | 526 kts | 108° |
| 2026-04-30 13:57 | 40.36884 | -136.27487 | 41346 ft | 526 kts | 108° |
| 2026-04-30 13:58 | 40.34258 | -136.13509 | 41347 ft | 526 kts | 108° |
| 2026-04-30 13:59 | 40.32496 | -136.04191 | 41347 ft | 526 kts | 108° |
| 2026-04-30 13:59 | 40.30729 | -135.94884 | 41353 ft | 526 kts | 108° |
| 2026-04-30 14:00 | 40.28965 | -135.85640 | 41360 ft | 527 kts | 108° |
| 2026-04-30 14:00 | 40.26284 | -135.71674 | 41362 ft | 527 kts | 108° |
| 2026-04-30 14:01 | 40.24484 | -135.62350 | 41360 ft | 527 kts | 108° |
| 2026-04-30 14:01 | 40.22679 | -135.53043 | 41359 ft | 527 kts | 108° |
| 2026-04-30 14:02 | 40.20865 | -135.43735 | 41360 ft | 527 kts | 108° |
| 2026-04-30 14:02 | 40.19044 | -135.34435 | 41363 ft | 527 kts | 108° |
| 2026-04-30 14:03 | 40.17229 | -135.25208 | 41356 ft | 527 kts | 108° |
| 2026-04-30 14:03 | 40.15393 | -135.15919 | 41370 ft | 527 kts | 108° |
| 2026-04-30 14:04 | 40.13553 | -135.06647 | 41369 ft | 527 kts | 108° |
| 2026-04-30 14:04 | 40.11703 | -134.97369 | 41368 ft | 527 kts | 108° |
| 2026-04-30 14:05 | 40.09847 | -134.88105 | 41369 ft | 527 kts | 108° |
| 2026-04-30 14:05 | 40.07983 | -134.78841 | 41370 ft | 527 kts | 108° |
| 2026-04-30 14:06 | 40.05173 | -134.64956 | 41367 ft | 527 kts | 108° |
| 2026-04-30 14:07 | 40.02348 | -134.51088 | 41372 ft | 527 kts | 108° |
| 2026-04-30 14:08 | 39.99520 | -134.37296 | 41375 ft | 527 kts | 108° |
| 2026-04-30 14:08 | 39.96659 | -134.23438 | 41383 ft | 527 kts | 108° |
| 2026-04-30 14:09 | 39.94743 | -134.14210 | 41382 ft | 527 kts | 108° |
| 2026-04-30 14:10 | 39.91860 | -134.00392 | 41382 ft | 527 kts | 109° |
| 2026-04-30 14:10 | 39.89925 | -133.91173 | 41373 ft | 527 kts | 108° |
| 2026-04-30 14:11 | 39.87985 | -133.81971 | 41370 ft | 527 kts | 108° |
| 2026-04-30 14:11 | 39.86051 | -133.72831 | 41371 ft | 527 kts | 109° |
| 2026-04-30 14:12 | 39.84097 | -133.63639 | 41363 ft | 527 kts | 108° |
| 2026-04-30 14:12 | 39.82136 | -133.54453 | 41369 ft | 527 kts | 108° |
| 2026-04-30 14:13 | 39.80167 | -133.45271 | 41365 ft | 527 kts | 109° |
| 2026-04-30 14:13 | 39.78188 | -133.36078 | 41368 ft | 527 kts | 109° |
| 2026-04-30 14:14 | 39.76214 | -133.26944 | 41367 ft | 527 kts | 109° |
| 2026-04-30 14:14 | 39.74222 | -133.17769 | 41365 ft | 527 kts | 109° |
| 2026-04-30 14:15 | 39.72222 | -133.08599 | 41370 ft | 527 kts | 109° |
| 2026-04-30 14:15 | 39.70216 | -132.99436 | 41364 ft | 527 kts | 109° |
| 2026-04-30 14:16 | 39.68202 | -132.90276 | 41368 ft | 527 kts | 109° |
| 2026-04-30 14:16 | 39.66182 | -132.81127 | 41367 ft | 527 kts | 109° |
| 2026-04-30 14:17 | 39.64167 | -132.72036 | 41350 ft | 528 kts | 109° |
| 2026-04-30 14:17 | 39.62128 | -132.62876 | 41363 ft | 528 kts | 109° |
| 2026-04-30 14:18 | 39.60084 | -132.53732 | 41368 ft | 528 kts | 109° |
| 2026-04-30 14:18 | 39.57005 | -132.40028 | 41351 ft | 528 kts | 109° |
| 2026-04-30 14:19 | 39.53904 | -132.26309 | 41360 ft | 528 kts | 109° |
| 2026-04-30 14:20 | 39.51845 | -132.17243 | 41359 ft | 528 kts | 109° |
| 2026-04-30 14:20 | 39.48721 | -132.03562 | 41357 ft | 529 kts | 109° |
| 2026-04-30 14:21 | 39.46627 | -131.94437 | 41357 ft | 529 kts | 109° |
| 2026-04-30 14:22 | 39.43470 | -131.80746 | 41357 ft | 529 kts | 109° |
| 2026-04-30 14:22 | 39.40299 | -131.67080 | 41354 ft | 529 kts | 109° |
| 2026-04-30 14:23 | 39.36044 | -131.48866 | 41349 ft | 529 kts | 109° |
| 2026-04-30 14:24 | 39.32851 | -131.35294 | 41350 ft | 529 kts | 109° |
| 2026-04-30 14:25 | 39.28542 | -131.17101 | 41331 ft | 529 kts | 109° |
| 2026-04-30 14:26 | 39.25294 | -131.03478 | 41338 ft | 529 kts | 109° |
| 2026-04-30 14:27 | 39.22046 | -130.89934 | 41333 ft | 529 kts | 109° |
| 2026-04-30 14:27 | 39.19862 | -130.80870 | 41330 ft | 529 kts | 109° |
| 2026-04-30 14:28 | 39.16574 | -130.67294 | 41328 ft | 528 kts | 109° |
| 2026-04-30 14:28 | 39.14374 | -130.58252 | 41325 ft | 529 kts | 109° |
| 2026-04-30 14:29 | 39.10336 | -130.41744 | 41322 ft | 529 kts | 109° |
| 2026-04-30 14:31 | 39.04388 | -130.17633 | 41320 ft | 529 kts | 109° |
| 2026-04-30 14:31 | 39.01027 | -130.04113 | 41314 ft | 529 kts | 110° |
| 2026-04-30 14:32 | 38.98393 | -129.90364 | 41308 ft | 531 kts | 103° |
| 2026-04-30 14:33 | 38.96860 | -129.81075 | 41307 ft | 530 kts | 103° |
| 2026-04-30 14:33 | 38.94570 | -129.67162 | 41303 ft | 530 kts | 103° |
| 2026-04-30 14:34 | 38.93024 | -129.57901 | 41299 ft | 530 kts | 103° |
| 2026-04-30 14:34 | 38.91468 | -129.48647 | 41298 ft | 530 kts | 103° |
| 2026-04-30 14:35 | 38.89128 | -129.34826 | 41293 ft | 530 kts | 103° |
| 2026-04-30 14:36 | 38.87552 | -129.25574 | 41289 ft | 530 kts | 103° |
| 2026-04-30 14:36 | 38.85968 | -129.16324 | 41287 ft | 530 kts | 103° |
| 2026-04-30 14:37 | 38.84380 | -129.07092 | 41284 ft | 530 kts | 103° |
| 2026-04-30 14:37 | 38.82783 | -128.97857 | 41281 ft | 530 kts | 103° |
| 2026-04-30 14:38 | 38.81178 | -128.88623 | 41282 ft | 530 kts | 104° |
| 2026-04-30 14:38 | 38.79569 | -128.79409 | 41276 ft | 529 kts | 103° |
| 2026-04-30 14:39 | 38.77962 | -128.70251 | 41270 ft | 529 kts | 104° |
| 2026-04-30 14:39 | 38.76337 | -128.61041 | 41270 ft | 529 kts | 104° |
| 2026-04-30 14:40 | 38.73890 | -128.47251 | 41266 ft | 529 kts | 104° |
| 2026-04-30 14:40 | 38.72248 | -128.38053 | 41268 ft | 529 kts | 104° |
| 2026-04-30 14:41 | 38.70610 | -128.28922 | 41269 ft | 529 kts | 104° |
| 2026-04-30 14:41 | 38.68954 | -128.19740 | 41261 ft | 528 kts | 104° |
| 2026-04-30 14:42 | 38.67295 | -128.10575 | 41260 ft | 528 kts | 104° |
| 2026-04-30 14:42 | 38.65910 | -128.02965 | 41250 ft | 528 kts | 104° |
| 2026-04-30 14:43 | 38.64240 | -127.93821 | 41250 ft | 528 kts | 104° |
| 2026-04-30 14:43 | 38.62290 | -127.83202 | 41245 ft | 527 kts | 104° |
| 2026-04-30 14:44 | 38.60878 | -127.75554 | 41241 ft | 527 kts | 104° |
| 2026-04-30 14:44 | 38.59189 | -127.66437 | 41244 ft | 527 kts | 104° |
| 2026-04-30 14:45 | 38.57504 | -127.57385 | 41231 ft | 527 kts | 104° |
| 2026-04-30 14:45 | 38.55802 | -127.48286 | 41233 ft | 526 kts | 104° |
| 2026-04-30 14:46 | 38.54097 | -127.39207 | 41232 ft | 526 kts | 104° |
| 2026-04-30 14:46 | 38.52379 | -127.30106 | 41229 ft | 526 kts | 104° |
| 2026-04-30 14:47 | 38.50659 | -127.21037 | 41224 ft | 525 kts | 104° |
| 2026-04-30 14:47 | 38.48943 | -127.12027 | 41221 ft | 524 kts | 104° |
| 2026-04-30 14:48 | 38.47495 | -127.04454 | 41223 ft | 524 kts | 104° |
| 2026-04-30 14:48 | 38.45814 | -126.97370 | 41226 ft | 523 kts | 111° |
| 2026-04-30 14:49 | 38.43253 | -126.88673 | 41215 ft | 523 kts | 112° |
| 2026-04-30 14:49 | 38.40597 | -126.80017 | 41213 ft | 523 kts | 112° |
| 2026-04-30 14:50 | 38.36613 | -126.67064 | 41203 ft | 523 kts | 112° |
| 2026-04-30 14:51 | 38.32658 | -126.54188 | 41197 ft | 522 kts | 112° |
| 2026-04-30 14:52 | 38.28681 | -126.41287 | 41195 ft | 521 kts | 112° |
| 2026-04-30 14:52 | 38.24692 | -126.28412 | 41192 ft | 520 kts | 112° |
| 2026-04-30 14:53 | 38.20698 | -126.15577 | 41186 ft | 520 kts | 112° |
| 2026-04-30 14:54 | 38.15368 | -125.98546 | 41183 ft | 519 kts | 112° |
| 2026-04-30 14:55 | 38.11347 | -125.85762 | 41181 ft | 519 kts | 112° |
| 2026-04-30 14:56 | 38.05966 | -125.68747 | 41173 ft | 518 kts | 112° |
| 2026-04-30 14:57 | 38.01921 | -125.56024 | 41170 ft | 518 kts | 112° |
| 2026-04-30 14:58 | 37.96880 | -125.38983 | 41162 ft | 518 kts | 108° |
| 2026-04-30 14:58 | 37.93511 | -125.25963 | 41159 ft | 518 kts | 109° |
| 2026-04-30 15:00 | 37.87703 | -125.04449 | 41151 ft | 517 kts | 109° |
| 2026-04-30 15:01 | 37.82989 | -124.87221 | 41136 ft | 517 kts | 109° |
| 2026-04-30 15:01 | 37.79448 | -124.74338 | 41140 ft | 517 kts | 109° |
| 2026-04-30 15:02 | 37.77096 | -124.65820 | 41135 ft | 516 kts | 109° |
| 2026-04-30 15:03 | 37.71150 | -124.44401 | 41131 ft | 516 kts | 109° |
| 2026-04-30 15:04 | 37.66125 | -124.26435 | 41121 ft | 515 kts | 109° |
| 2026-04-30 15:06 | 37.60129 | -124.05156 | 41112 ft | 515 kts | 109° |
| 2026-04-30 15:07 | 37.55300 | -123.88141 | 41103 ft | 515 kts | 109° |
| 2026-04-30 15:08 | 37.50443 | -123.71133 | 41105 ft | 515 kts | 110° |
| 2026-04-30 15:09 | 37.44350 | -123.49952 | 41101 ft | 516 kts | 109° |
| 2026-04-30 15:10 | 37.39437 | -123.32989 | 41094 ft | 516 kts | 110° |
| 2026-04-30 15:11 | 37.32046 | -123.07669 | 41094 ft | 515 kts | 110° |
| 2026-04-30 15:13 | 37.25184 | -122.86951 | 41092 ft | 514 kts | 126° |
| 2026-04-30 15:14 | 37.10334 | -122.61869 | 41085 ft | 513 kts | 124° |
| 2026-04-30 15:17 | 36.92041 | -122.28844 | 41077 ft | 512 kts | 125° |
| 2026-04-30 15:19 | 36.75776 | -121.99769 | 41091 ft | 510 kts | 125° |